Observation data for Goodnight on 01/12/2018      Previous  Date  Next       Current Mesonet Observations  Soil Data  Daily Summary Page  Observations in Plain Language
KGO1 120600Z 30005KT M07/M11 A3027 RMK A01 T10741112  RH  074%=      5-min Rain = 0
KGO1 120601Z 30005KT M07/M11 A3027 RMK A01 T10741111  RH  075%=      5-min Rain = 0
KGO1 120602Z 30005KT M07/M11 A3027 RMK A01 T10741111  RH  075%=      5-min Rain = 0
KGO1 120603Z 29004KT M07/M11 A3027 RMK A01 T10741112  RH  074%=      5-min Rain = 0
KGO1 120604Z 29005KT M07/M11 A3027 RMK A01 T10741113  RH  074%=      5-min Rain = 0
KGO1 120605Z 29006KT M08/M12 A3027 RMK A01 T10751115  RH  073%=      5-min Rain = 0
KGO1 120606Z 28006KT M08/M12 A3027 RMK A01 T10761119  RH  071%=      5-min Rain = 0
KGO1 120607Z 29006KT M08/M12 A3027 RMK A01 T10781122  RH  071%=      5-min Rain = 0
KGO1 120608Z 29005KT M08/M12 A3027 RMK A01 T10791120  RH  072%=      5-min Rain = 0
KGO1 120609Z 29005KT M08/M12 A3026 RMK A01 T10791119  RH  073%=      5-min Rain = 0
KGO1 120610Z 29005KT M08/M12 A3026 RMK A01 T10801117  RH  075%=      5-min Rain = 0
KGO1 120611Z 29005KT M08/M12 A3026 RMK A01 T10801116  RH  075%=      5-min Rain = 0
KGO1 120612Z 29005KT M08/M12 A3026 RMK A01 T10791116  RH  075%=      5-min Rain = 0
KGO1 120613Z 29006KT M08/M12 A3027 RMK A01 T10791117  RH  074%=      5-min Rain = 0
KGO1 120614Z 29006KT M08/M12 A3027 RMK A01 T10801118  RH  074%=      5-min Rain = 0
KGO1 120615Z 28006KT M08/M12 A3027 RMK A01 T10811119  RH  074%=      5-min Rain = 0
KGO1 120616Z 28006KT M08/M12 A3027 RMK A01 T10801118  RH  074%=      5-min Rain = 0
KGO1 120617Z 28007KT M08/M12 A3027 RMK A01 T10791116  RH  075%=      5-min Rain = 0
KGO1 120618Z 28007KT M08/M12 A3027 RMK A01 T10771115  RH  074%=      5-min Rain = 0
KGO1 120619Z 28007KT M08/M12 A3027 RMK A01 T10761115  RH  074%=      5-min Rain = 0
KGO1 120620Z 28007KT M08/M12 A3027 RMK A01 T10761116  RH  073%=      5-min Rain = 0
KGO1 120621Z 28007KT M08/M12 A3027 RMK A01 T10761116  RH  073%=      5-min Rain = 0
KGO1 120622Z 28007KT M08/M12 A3027 RMK A01 T10771117  RH  073%=      5-min Rain = 0
KGO1 120623Z 29008KT M08/M12 A3027 RMK A01 T10771117  RH  073%=      5-min Rain = 0
KGO1 120624Z 28008KT M08/M12 A3027 RMK A01 T10781118  RH  073%=      5-min Rain = 0
KGO1 120625Z 28008KT M08/M12 A3027 RMK A01 T10791118  RH  074%=      5-min Rain = 0
KGO1 120626Z 28007KT M08/M12 A3027 RMK A01 T10791118  RH  074%=      5-min Rain = 0
KGO1 120627Z 28007KT M08/M12 A3027 RMK A01 T10791118  RH  074%=      5-min Rain = 0
KGO1 120628Z 28007KT M08/M12 A3027 RMK A01 T10801119  RH  074%=      5-min Rain = 0
KGO1 120629Z 29007KT M08/M12 A3027 RMK A01 T10811119  RH  074%=      5-min Rain = 0
KGO1 120630Z 29006KT M08/M12 A3026 RMK A01 T10811119  RH  074%=      5-min Rain = 0
KGO1 120631Z 29006KT M08/M12 A3026 RMK A01 T10811119  RH  075%=      5-min Rain = 0
KGO1 120632Z 29007KT M08/M12 A3026 RMK A01 T10821118  RH  075%=      5-min Rain = 0
KGO1 120633Z 29006KT M08/M12 A3026 RMK A01 T10821118  RH  075%=      5-min Rain = 0
KGO1 120634Z 29006KT M08/M12 A3026 RMK A01 T10821117  RH  076%=      5-min Rain = 0
KGO1 120635Z 29007KT M08/M12 A3026 RMK A01 T10811116  RH  076%=      5-min Rain = 0
KGO1 120636Z 29007KT M08/M11 A3026 RMK A01 T10801114  RH  076%=      5-min Rain = 0
KGO1 120637Z 30007KT M08/M11 A3026 RMK A01 T10781111  RH  077%=      5-min Rain = 0
KGO1 120638Z 30006KT M08/M11 A3026 RMK A01 T10751109  RH  077%=      5-min Rain = 0
KGO1 120639Z 30006KT M07/M11 A3026 RMK A01 T10731108  RH  076%=      5-min Rain = 0
KGO1 120640Z 30005KT M07/M11 A3026 RMK A01 T10721109  RH  075%=      5-min Rain = 0
KGO1 120641Z 29005KT M07/M11 A3026 RMK A01 T10711109  RH  075%=      5-min Rain = 0
KGO1 120642Z 29005KT M07/M11 A3026 RMK A01 T10711109  RH  074%=      5-min Rain = 0
KGO1 120643Z 29006KT M07/M11 A3026 RMK A01 T10711110  RH  074%=      5-min Rain = 0
KGO1 120644Z 29008KT M07/M11 A3026 RMK A01 T10711110  RH  074%=      5-min Rain = 0
KGO1 120645Z 29009KT M07/M11 A3026 RMK A01 T10701109  RH  074%=      5-min Rain = 0
KGO1 120646Z 28009KT M07/M11 A3026 RMK A01 T10691108  RH  074%=      5-min Rain = 0
KGO1 120647Z 28009KT M07/M11 A3026 RMK A01 T10691109  RH  073%=      5-min Rain = 0
KGO1 120648Z 27007KT M07/M11 A3026 RMK A01 T10681109  RH  073%=      5-min Rain = 0
KGO1 120649Z 27006KT M07/M11 A3026 RMK A01 T10681110  RH  072%=      5-min Rain = 0
KGO1 120650Z 27006KT M07/M11 A3026 RMK A01 T10691110  RH  072%=      5-min Rain = 0
KGO1 120651Z 27006KT M07/M11 A3026 RMK A01 T10701111  RH  073%=      5-min Rain = 0
KGO1 120652Z 28006KT M07/M11 A3026 RMK A01 T10711111  RH  073%=      5-min Rain = 0
KGO1 120653Z 28006KT M07/M11 A3026 RMK A01 T10721112  RH  073%=      5-min Rain = 0
KGO1 120654Z 28006KT M07/M11 A3026 RMK A01 T10721112  RH  073%=      5-min Rain = 0
KGO1 120655Z 28006KT M07/M11 A3026 RMK A01 T10721112  RH  074%=      5-min Rain = 0
KGO1 120656Z 28006KT M07/M11 A3026 RMK A01 T10731112  RH  074%=      5-min Rain = 0
KGO1 120657Z 28006KT M07/M11 A3026 RMK A01 T10731113  RH  074%=      5-min Rain = 0
KGO1 120658Z 28006KT M07/M11 A3026 RMK A01 T10741113  RH  073%=      5-min Rain = 0
KGO1 120659Z 28006KT M07/M11 A3026 RMK A01 T10741113  RH  073%=      5-min Rain = 0
KGO1 120700Z 28006KT M08/M11 A3026 RMK A01 T10751114  RH  074%=      5-min Rain = 0
KGO1 120701Z 28006KT M08/M11 A3026 RMK A01 T10751114  RH  074%=      5-min Rain = 0
KGO1 120702Z 28005KT M08/M11 A3026 RMK A01 T10751114  RH  074%=      5-min Rain = 0
KGO1 120703Z 27005KT M08/M11 A3026 RMK A01 T10751114  RH  074%=      5-min Rain = 0
KGO1 120704Z 27005KT M08/M11 A3026 RMK A01 T10761114  RH  074%=      5-min Rain = 0
KGO1 120705Z 27005KT M08/M11 A3026 RMK A01 T10751113  RH  074%=      5-min Rain = 0
KGO1 120706Z 27005KT M08/M11 A3026 RMK A01 T10751113  RH  074%=      5-min Rain = 0
KGO1 120707Z 27005KT M08/M11 A3026 RMK A01 T10751113  RH  074%=      5-min Rain = 0
KGO1 120708Z 27004KT M08/M11 A3026 RMK A01 T10761114  RH  074%=      5-min Rain = 0
KGO1 120709Z 27004KT M08/M12 A3026 RMK A01 T10761115  RH  073%=      5-min Rain = 0
KGO1 120710Z 27004KT M08/M12 A3026 RMK A01 T10751115  RH  073%=      5-min Rain = 0
KGO1 120711Z 27005KT M08/M12 A3026 RMK A01 T10751115  RH  073%=      5-min Rain = 0
KGO1 120712Z 27005KT M08/M11 A3026 RMK A01 T10761114  RH  074%=      5-min Rain = 0
KGO1 120713Z 27005KT M08/M11 A3026 RMK A01 T10751113  RH  074%=      5-min Rain = 0
KGO1 120714Z 26006KT M08/M11 A3026 RMK A01 T10761114  RH  074%=      5-min Rain = 0
KGO1 120715Z 26006KT M08/M12 A3026 RMK A01 T10771115  RH  074%=      5-min Rain = 0
KGO1 120716Z 26006KT M08/M12 A3026 RMK A01 T10771116  RH  074%=      5-min Rain = 0
KGO1 120717Z 26006KT M08/M12 A3026 RMK A01 T10771116  RH  074%=      5-min Rain = 0
KGO1 120718Z 26006KT M08/M12 A3026 RMK A01 T10771116  RH  074%=      5-min Rain = 0
KGO1 120719Z 26006KT M08/M12 A3026 RMK A01 T10771116  RH  074%=      5-min Rain = 0
KGO1 120720Z 27006KT M08/M12 A3026 RMK A01 T10771116  RH  074%=      5-min Rain = 0
KGO1 120721Z 27006KT M08/M12 A3026 RMK A01 T10781117  RH  074%=      5-min Rain = 0
KGO1 120722Z 27006KT M08/M12 A3026 RMK A01 T10791118  RH  074%=      5-min Rain = 0
KGO1 120723Z 27005KT M08/M12 A3026 RMK A01 T10791118  RH  074%=      5-min Rain = 0
KGO1 120724Z 28005KT M08/M12 A3026 RMK A01 T10801118  RH  074%=      5-min Rain = 0
KGO1 120725Z 28006KT M08/M12 A3026 RMK A01 T10811119  RH  074%=      5-min Rain = 0
KGO1 120726Z 28006KT M08/M12 A3025 RMK A01 T10821119  RH  075%=      5-min Rain = 0
KGO1 120727Z 28005KT M08/M12 A3025 RMK A01 T10831120  RH  075%=      5-min Rain = 0
KGO1 120728Z 28005KT M08/M12 A3025 RMK A01 T10831120  RH  075%=      5-min Rain = 0
KGO1 120729Z 28005KT M08/M12 A3025 RMK A01 T10841120  RH  075%=      5-min Rain = 0
KGO1 120730Z 28005KT M08/M12 A3025 RMK A01 T10841120  RH  075%=      5-min Rain = 0
KGO1 120731Z 27004KT M09/M12 A3025 RMK A01 T10851121  RH  075%=      5-min Rain = 0
KGO1 120732Z 27004KT M09/M12 A3025 RMK A01 T10861122  RH  075%=      5-min Rain = 0
KGO1 120733Z 27004KT M09/M12 A3025 RMK A01 T10871123  RH  075%=      5-min Rain = 0
KGO1 120734Z 26004KT M09/M12 A3025 RMK A01 T10871123  RH  075%=      5-min Rain = 0
KGO1 120735Z 26005KT M09/M12 A3025 RMK A01 T10881123  RH  076%=      5-min Rain = 0
KGO1 120736Z 26005KT M09/M12 A3025 RMK A01 T10871122  RH  076%=      5-min Rain = 0
KGO1 120737Z 26004KT M09/M12 A3025 RMK A01 T10861120  RH  077%=      5-min Rain = 0
KGO1 120738Z 26004KT M09/M12 A3025 RMK A01 T10851119  RH  077%=      5-min Rain = 0
KGO1 120739Z 26004KT M08/M12 A3025 RMK A01 T10841119  RH  076%=      5-min Rain = 0
KGO1 120740Z 26004KT M08/M12 A3025 RMK A01 T10841119  RH  076%=      5-min Rain = 0
KGO1 120741Z 26004KT M09/M12 A3025 RMK A01 T10851120  RH  076%=      5-min Rain = 0
KGO1 120742Z 26003KT M09/M12 A3025 RMK A01 T10851121  RH  076%=      5-min Rain = 0
KGO1 120743Z 26003KT M09/M12 A3025 RMK A01 T10861121  RH  076%=      5-min Rain = 0
KGO1 120744Z 26003KT M09/M12 A3025 RMK A01 T10861120  RH  076%=      5-min Rain = 0
KGO1 120745Z 27003KT M09/M12 A3025 RMK A01 T10871121  RH  076%=      5-min Rain = 0
KGO1 120746Z 27003KT M09/M12 A3025 RMK A01 T10871121  RH  076%=      5-min Rain = 0
KGO1 120747Z 28003KT M09/M12 A3024 RMK A01 T10871121  RH  076%=      5-min Rain = 0
KGO1 120748Z 28003KT M09/M12 A3024 RMK A01 T10871121  RH  077%=      5-min Rain = 0
KGO1 120749Z 28003KT M09/M12 A3024 RMK A01 T10881121  RH  077%=      5-min Rain = 0
KGO1 120750Z 28003KT M09/M12 A3024 RMK A01 T10881122  RH  077%=      5-min Rain = 0
KGO1 120751Z 28002KT M09/M12 A3025 RMK A01 T10891122  RH  077%=      5-min Rain = 0
KGO1 120752Z 29002KT M09/M12 A3025 RMK A01 T10901122  RH  077%=      5-min Rain = 0
KGO1 120753Z 29001KT M09/M12 A3025 RMK A01 T10901121  RH  078%=      5-min Rain = 0
KGO1 120754Z 30001KT M09/M12 A3025 RMK A01 T10901120  RH  079%=      5-min Rain = 0
KGO1 120755Z 29002KT M09/M12 A3025 RMK A01 T10891119  RH  079%=      5-min Rain = 0
KGO1 120756Z 29003KT M09/M12 A3025 RMK A01 T10881117  RH  080%=      5-min Rain = 0
KGO1 120757Z 29003KT M08/M11 A3025 RMK A01 T10831111  RH  080%=      5-min Rain = 0
KGO1 120758Z 29003KT M08/M11 A3025 RMK A01 T10781109  RH  079%=      5-min Rain = 0
KGO1 120759Z 29002KT M08/M11 A3025 RMK A01 T10781113  RH  076%=      5-min Rain = 0
KGO1 120800Z 29002KT M08/M12 A3025 RMK A01 T10801117  RH  075%=      5-min Rain = 0
KGO1 120801Z 29003KT M08/M12 A3025 RMK A01 T10831121  RH  074%=      5-min Rain = 0
KGO1 120802Z 29002KT M09/M12 A3025 RMK A01 T10861122  RH  075%=      5-min Rain = 0
KGO1 120803Z 30002KT M09/M12 A3025 RMK A01 T10861121  RH  076%=      5-min Rain = 0
KGO1 120804Z 30002KT M09/M12 A3025 RMK A01 T10861121  RH  076%=      5-min Rain = 0
KGO1 120805Z 31003KT M09/M12 A3025 RMK A01 T10871121  RH  076%=      5-min Rain = 0
KGO1 120806Z 31003KT M09/M12 A3025 RMK A01 T10871120  RH  077%=      5-min Rain = 0
KGO1 120807Z 31003KT M09/M12 A3025 RMK A01 T10871121  RH  077%=      5-min Rain = 0
KGO1 120808Z 31003KT M09/M12 A3026 RMK A01 T10881121  RH  077%=      5-min Rain = 0
KGO1 120809Z 31003KT M09/M12 A3026 RMK A01 T10891123  RH  077%=      5-min Rain = 0
KGO1 120810Z 30004KT M09/M12 A3026 RMK A01 T10901124  RH  077%=      5-min Rain = 0
KGO1 120811Z 30004KT M09/M12 A3026 RMK A01 T10911123  RH  077%=      5-min Rain = 0
KGO1 120812Z 30004KT M09/M12 A3026 RMK A01 T10911121  RH  079%=      5-min Rain = 0
KGO1 120813Z 29005KT M09/M12 A3027 RMK A01 T10901119  RH  079%=      5-min Rain = 0
KGO1 120814Z 29005KT M09/M12 A3027 RMK A01 T10901120  RH  079%=      5-min Rain = 0
KGO1 120815Z 30005KT M09/M12 A3027 RMK A01 T10901120  RH  079%=      5-min Rain = 0
KGO1 120816Z 30006KT M09/M12 A3027 RMK A01 T10901120  RH  079%=      5-min Rain = 0
KGO1 120817Z 30006KT M09/M12 A3026 RMK A01 T10901120  RH  079%=      5-min Rain = 0
KGO1 120818Z 30006KT M09/M12 A3026 RMK A01 T10901120  RH  079%=      5-min Rain = 0
KGO1 120819Z 30006KT M09/M12 A3026 RMK A01 T10901118  RH  080%=      5-min Rain = 0
KGO1 120820Z 29006KT M09/M12 A3025 RMK A01 T10901118  RH  080%=      5-min Rain = 0
KGO1 120821Z 29006KT M09/M12 A3025 RMK A01 T10891117  RH  080%=      5-min Rain = 0
KGO1 120822Z 29006KT M09/M12 A3025 RMK A01 T10881117  RH  080%=      5-min Rain = 0
KGO1 120823Z 29006KT M09/M12 A3025 RMK A01 T10881117  RH  080%=      5-min Rain = 0
KGO1 120824Z 29006KT M09/M12 A3025 RMK A01 T10881117  RH  079%=      5-min Rain = 0
KGO1 120825Z 29006KT M09/M12 A3025 RMK A01 T10891118  RH  079%=      5-min Rain = 0
KGO1 120826Z 29005KT M09/M12 A3025 RMK A01 T10891119  RH  079%=      5-min Rain = 0
KGO1 120827Z 29005KT M09/M12 A3025 RMK A01 T10891119  RH  079%=      5-min Rain = 0
KGO1 120828Z 29004KT M09/M12 A3025 RMK A01 T10891119  RH  079%=      5-min Rain = 0
KGO1 120829Z 30004KT M09/M12 A3025 RMK A01 T10881118  RH  079%=      5-min Rain = 0
KGO1 120830Z 30004KT M09/M12 A3025 RMK A01 T10881119  RH  078%=      5-min Rain = 0
KGO1 120831Z 29004KT M09/M12 A3025 RMK A01 T10891120  RH  078%=      5-min Rain = 0
KGO1 120832Z 29004KT M09/M12 A3025 RMK A01 T10891120  RH  078%=      5-min Rain = 0
KGO1 120833Z 29004KT M09/M12 A3025 RMK A01 T10901121  RH  078%=      5-min Rain = 0
KGO1 120834Z 29005KT M09/M12 A3024 RMK A01 T10911122  RH  078%=      5-min Rain = 0
KGO1 120835Z 29005KT M09/M12 A3024 RMK A01 T10921124  RH  078%=      5-min Rain = 0
KGO1 120836Z 29004KT M09/M12 A3024 RMK A01 T10931124  RH  078%=      5-min Rain = 0
KGO1 120837Z 29004KT M09/M12 A3024 RMK A01 T10941123  RH  079%=      5-min Rain = 0
KGO1 120838Z 29004KT M09/M12 A3024 RMK A01 T10941122  RH  080%=      5-min Rain = 0
KGO1 120839Z 29003KT M09/M12 A3024 RMK A01 T10941122  RH  080%=      5-min Rain = 0
KGO1 120840Z 29003KT M09/M12 A3024 RMK A01 T10931121  RH  080%=      5-min Rain = 0
KGO1 120841Z 30002KT M09/M12 A3024 RMK A01 T10931122  RH  080%=      5-min Rain = 0
KGO1 120842Z 30002KT M09/M12 A3023 RMK A01 T10931123  RH  079%=      5-min Rain = 0
KGO1 120843Z 30002KT M09/M12 A3023 RMK A01 T10931122  RH  079%=      5-min Rain = 0
KGO1 120844Z 31002KT M09/M12 A3023 RMK A01 T10931123  RH  079%=      5-min Rain = 0
KGO1 120845Z 32001KT M09/M12 A3023 RMK A01 T10931122  RH  079%=      5-min Rain = 0
KGO1 120846Z 32001KT M09/M12 A3023 RMK A01 T10931123  RH  079%=      5-min Rain = 0
KGO1 120847Z 32001KT M09/M12 A3023 RMK A01 T10931123  RH  079%=      5-min Rain = 0
KGO1 120848Z 31001KT M09/M12 A3023 RMK A01 T10941124  RH  078%=      5-min Rain = 0
KGO1 120849Z 32001KT M10/M13 A3023 RMK A01 T10951125  RH  078%=      5-min Rain = 0
KGO1 120850Z 35001KT M10/M13 A3023 RMK A01 T10951125  RH  079%=      5-min Rain = 0
KGO1 120851Z 33001KT M10/M12 A3022 RMK A01 T10951124  RH  079%=      5-min Rain = 0
KGO1 120852Z 35001KT M10/M12 A3022 RMK A01 T10951124  RH  079%=      5-min Rain = 0
KGO1 120853Z 34001KT M10/M12 A3022 RMK A01 T10951124  RH  080%=      5-min Rain = 0
KGO1 120854Z 35001KT M10/M12 A3023 RMK A01 T10951123  RH  080%=      5-min Rain = 0
KGO1 120855Z 35001KT M09/M12 A3023 RMK A01 T10941123  RH  079%=      5-min Rain = 0
KGO1 120856Z 33002KT M09/M12 A3023 RMK A01 T10941123  RH  079%=      5-min Rain = 0
KGO1 120857Z 32002KT M09/M12 A3023 RMK A01 T10941124  RH  078%=      5-min Rain = 0
KGO1 120858Z 33001KT M10/M13 A3023 RMK A01 T10951126  RH  078%=      5-min Rain = 0
KGO1 120859Z 34001KT M10/M13 A3022 RMK A01 T10951125  RH  079%=      5-min Rain = 0
KGO1 120900Z 34001KT M10/M13 A3022 RMK A01 T10961125  RH  079%=      5-min Rain = 0
KGO1 120901Z 34000KT M10/M13 A3022 RMK A01 T10961125  RH  079%=      5-min Rain = 0
KGO1 120902Z 34001KT M10/M13 A3022 RMK A01 T10961125  RH  079%=      5-min Rain = 0
KGO1 120903Z 34001KT M10/M13 A3022 RMK A01 T10961126  RH  079%=      5-min Rain = 0
KGO1 120904Z 34001KT M10/M13 A3022 RMK A01 T10961127  RH  078%=      5-min Rain = 0
KGO1 120905Z 34000KT M10/M13 A3022 RMK A01 T10961127  RH  078%=      5-min Rain = 0
KGO1 120906Z 00000KT M10/M13 A3022 RMK A01 T10961127  RH  078%=      5-min Rain = 0
KGO1 120907Z 34000KT M10/M13 A3022 RMK A01 T10961127  RH  078%=      5-min Rain = 0
KGO1 120908Z 00000KT M10/M13 A3022 RMK A01 T10961127  RH  078%=      5-min Rain = 0
KGO1 120909Z 00000KT M10/M13 A3022 RMK A01 T10961128  RH  077%=      5-min Rain = 0
KGO1 120910Z 02001KT M10/M13 A3023 RMK A01 T10971130  RH  077%=      5-min Rain = 0
KGO1 120911Z 03001KT M10/M13 A3023 RMK A01 T10981131  RH  077%=      5-min Rain = 0
KGO1 120912Z 03001KT M10/M13 A3023 RMK A01 T10991131  RH  077%=      5-min Rain = 0
KGO1 120913Z 03002KT M10/M13 A3023 RMK A01 T10991130  RH  078%=      5-min Rain = 0
KGO1 120914Z 03002KT M10/M13 A3023 RMK A01 T10991130  RH  079%=      5-min Rain = 0
KGO1 120915Z 03002KT M10/M13 A3023 RMK A01 T10981128  RH  079%=      5-min Rain = 0
KGO1 120916Z 03001KT M10/M13 A3023 RMK A01 T10981127  RH  079%=      5-min Rain = 0
KGO1 120917Z 03001KT M10/M13 A3023 RMK A01 T10971128  RH  079%=      5-min Rain = 0
KGO1 120918Z 03000KT M10/M13 A3023 RMK A01 T10971128  RH  078%=      5-min Rain = 0
KGO1 120919Z 03001KT M10/M13 A3023 RMK A01 T10981129  RH  078%=      5-min Rain = 0
KGO1 120920Z 03001KT M10/M13 A3023 RMK A01 T10991130  RH  078%=      5-min Rain = 0
KGO1 120921Z 02001KT M10/M13 A3023 RMK A01 T10991131  RH  078%=      5-min Rain = 0
KGO1 120922Z 01000KT M10/M13 A3023 RMK A01 T10991130  RH  078%=      5-min Rain = 0
KGO1 120923Z 01000KT M10/M13 A3023 RMK A01 T10991132  RH  077%=      5-min Rain = 0
KGO1 120924Z 00000KT M10/M13 A3023 RMK A01 T10991132  RH  077%=      5-min Rain = 0
KGO1 120925Z 00000KT M10/M13 A3023 RMK A01 T10991133  RH  076%=      5-min Rain = 0
KGO1 120926Z 00000KT M10/M13 A3023 RMK A01 T10991134  RH  076%=      5-min Rain = 0
KGO1 120927Z 00000KT M10/M13 A3023 RMK A01 T10991133  RH  076%=      5-min Rain = 0
KGO1 120928Z 00000KT M10/M13 A3023 RMK A01 T10981133  RH  076%=      5-min Rain = 0
KGO1 120929Z 00000KT M10/M13 A3023 RMK A01 T10981133  RH  076%=      5-min Rain = 0
KGO1 120930Z 00000KT M10/M13 A3023 RMK A01 T10981132  RH  076%=      5-min Rain = 0
KGO1 120931Z 00000KT M10/M13 A3023 RMK A01 T10981130  RH  077%=      5-min Rain = 0
KGO1 120932Z 32000KT M10/M13 A3023 RMK A01 T10971129  RH  077%=      5-min Rain = 0
KGO1 120933Z 32001KT M10/M13 A3023 RMK A01 T10961129  RH  077%=      5-min Rain = 0
KGO1 120934Z 31001KT M10/M13 A3023 RMK A01 T10961130  RH  076%=      5-min Rain = 0
KGO1 120935Z 30001KT M10/M13 A3023 RMK A01 T10961131  RH  076%=      5-min Rain = 0
KGO1 120936Z 30002KT M10/M13 A3023 RMK A01 T10971131  RH  076%=      5-min Rain = 0
KGO1 120937Z 29002KT M10/M13 A3023 RMK A01 T10971132  RH  076%=      5-min Rain = 0
KGO1 120938Z 29002KT M10/M13 A3023 RMK A01 T10981132  RH  076%=      5-min Rain = 0
KGO1 120939Z 29002KT M10/M13 A3023 RMK A01 T10971130  RH  076%=      5-min Rain = 0
KGO1 120940Z 29002KT M10/M13 A3023 RMK A01 T10951129  RH  076%=      5-min Rain = 0
KGO1 120941Z 28003KT M10/M13 A3023 RMK A01 T10951130  RH  076%=      5-min Rain = 0
KGO1 120942Z 28003KT M10/M13 A3024 RMK A01 T10951130  RH  076%=      5-min Rain = 0
KGO1 120943Z 27003KT M10/M13 A3024 RMK A01 T10951129  RH  076%=      5-min Rain = 0
KGO1 120944Z 27003KT M10/M13 A3024 RMK A01 T10951128  RH  076%=      5-min Rain = 0
KGO1 120945Z 26003KT M09/M13 A3024 RMK A01 T10941127  RH  077%=      5-min Rain = 0
KGO1 120946Z 27003KT M09/M12 A3023 RMK A01 T10911124  RH  077%=      5-min Rain = 0
KGO1 120947Z 27002KT M09/M12 A3023 RMK A01 T10901122  RH  077%=      5-min Rain = 0
KGO1 120948Z 28002KT M09/M12 A3023 RMK A01 T10891122  RH  076%=      5-min Rain = 0
KGO1 120949Z 28002KT M09/M12 A3023 RMK A01 T10881124  RH  076%=      5-min Rain = 0
KGO1 120950Z 28002KT M09/M12 A3023 RMK A01 T10881123  RH  076%=      5-min Rain = 0
KGO1 120951Z 28001KT M09/M13 A3023 RMK A01 T10891126  RH  075%=      5-min Rain = 0
KGO1 120952Z 28001KT M09/M13 A3023 RMK A01 T10911128  RH  074%=      5-min Rain = 0
KGO1 120953Z 28001KT M09/M13 A3023 RMK A01 T10921128  RH  075%=      5-min Rain = 0
KGO1 120954Z 27001KT M09/M13 A3023 RMK A01 T10921127  RH  076%=      5-min Rain = 0
KGO1 120955Z 27001KT M09/M13 A3023 RMK A01 T10911126  RH  076%=      5-min Rain = 0
KGO1 120956Z 27000KT M09/M13 A3022 RMK A01 T10911127  RH  075%=      5-min Rain = 0
KGO1 120957Z 27001KT M09/M13 A3022 RMK A01 T10921130  RH  074%=      5-min Rain = 0
KGO1 120958Z 26001KT M09/M13 A3022 RMK A01 T10931131  RH  074%=      5-min Rain = 0
KGO1 120959Z 26001KT M09/M13 A3022 RMK A01 T10941131  RH  074%=      5-min Rain = 0
KGO1 121000Z 27001KT M09/M13 A3023 RMK A01 T10941130  RH  075%=      5-min Rain = 0
KGO1 121001Z 28002KT M09/M13 A3023 RMK A01 T10941130  RH  075%=      5-min Rain = 0
KGO1 121002Z 28002KT M09/M13 A3023 RMK A01 T10941130  RH  075%=      5-min Rain = 0
KGO1 121003Z 28001KT M10/M13 A3023 RMK A01 T10951129  RH  076%=      5-min Rain = 0
KGO1 121004Z 27001KT M09/M13 A3023 RMK A01 T10941127  RH  077%=      5-min Rain = 0
KGO1 121005Z 26001KT M09/M13 A3022 RMK A01 T10931126  RH  077%=      5-min Rain = 0
KGO1 121006Z 26001KT M09/M12 A3022 RMK A01 T10911124  RH  077%=      5-min Rain = 0
KGO1 121007Z 26001KT M09/M12 A3022 RMK A01 T10891122  RH  077%=      5-min Rain = 0
KGO1 121008Z 26000KT M09/M12 A3022 RMK A01 T10881123  RH  076%=      5-min Rain = 0
KGO1 121009Z 26000KT M09/M12 A3022 RMK A01 T10871124  RH  075%=      5-min Rain = 0
KGO1 121010Z 26001KT M09/M13 A3022 RMK A01 T10871125  RH  074%=      5-min Rain = 0
KGO1 121011Z 26000KT M09/M13 A3022 RMK A01 T10881126  RH  074%=      5-min Rain = 0
KGO1 121012Z 27000KT M09/M13 A3023 RMK A01 T10891127  RH  074%=      5-min Rain = 0
KGO1 121013Z 27000KT M09/M13 A3023 RMK A01 T10901128  RH  074%=      5-min Rain = 0
KGO1 121014Z 00000KT M09/M13 A3023 RMK A01 T10901128  RH  074%=      5-min Rain = 0
KGO1 121015Z 00000KT M09/M13 A3023 RMK A01 T10911128  RH  074%=      5-min Rain = 0
KGO1 121016Z 00000KT M09/M13 A3023 RMK A01 T10921129  RH  074%=      5-min Rain = 0
KGO1 121017Z 00000KT M09/M13 A3023 RMK A01 T10931131  RH  074%=      5-min Rain = 0
KGO1 121018Z 00000KT M10/M13 A3023 RMK A01 T10951132  RH  074%=      5-min Rain = 0
KGO1 121019Z 00000KT M10/M13 A3023 RMK A01 T10961133  RH  074%=      5-min Rain = 0
KGO1 121020Z 00000KT M10/M13 A3023 RMK A01 T10971133  RH  075%=      5-min Rain = 0
KGO1 121021Z 27000KT M10/M13 A3023 RMK A01 T10971132  RH  076%=      5-min Rain = 0
KGO1 121022Z 27000KT M10/M13 A3023 RMK A01 T10961129  RH  077%=      5-min Rain = 0
KGO1 121023Z 00000KT M10/M13 A3023 RMK A01 T10951128  RH  077%=      5-min Rain = 0
KGO1 121024Z 00000KT M10/M13 A3023 RMK A01 T10951129  RH  076%=      5-min Rain = 0
KGO1 121025Z 00000KT M10/M13 A3023 RMK A01 T10961131  RH  075%=      5-min Rain = 0
KGO1 121026Z 00000KT M10/M13 A3023 RMK A01 T10961132  RH  075%=      5-min Rain = 0
KGO1 121027Z 00000KT M10/M13 A3023 RMK A01 T10961132  RH  075%=      5-min Rain = 0
KGO1 121028Z 00000KT M10/M13 A3023 RMK A01 T10961133  RH  075%=      5-min Rain = 0
KGO1 121029Z 00000KT M10/M13 A3023 RMK A01 T10971134  RH  075%=      5-min Rain = 0
KGO1 121030Z 00000KT M10/M13 A3023 RMK A01 T10991134  RH  075%=      5-min Rain = 0
KGO1 121031Z 00000KT M10/M13 A3023 RMK A01 T10991134  RH  076%=      5-min Rain = 0
KGO1 121032Z 00000KT M10/M13 A3023 RMK A01 T10981132  RH  076%=      5-min Rain = 0
KGO1 121033Z 00000KT M10/M13 A3023 RMK A01 T10961129  RH  077%=      5-min Rain = 0
KGO1 121034Z 00000KT M09/M13 A3023 RMK A01 T10941128  RH  077%=      5-min Rain = 0
KGO1 121035Z 00000KT M09/M13 A3023 RMK A01 T10931127  RH  076%=      5-min Rain = 0
KGO1 121036Z 00000KT M09/M13 A3023 RMK A01 T10921127  RH  076%=      5-min Rain = 0
KGO1 121037Z 00000KT M09/M13 A3023 RMK A01 T10921128  RH  075%=      5-min Rain = 0
KGO1 121038Z 00000KT M09/M13 A3023 RMK A01 T10921128  RH  075%=      5-min Rain = 0
KGO1 121039Z 00000KT M09/M13 A3023 RMK A01 T10931128  RH  076%=      5-min Rain = 0
KGO1 121040Z 00000KT M09/M13 A3023 RMK A01 T10941129  RH  076%=      5-min Rain = 0
KGO1 121041Z 00000KT M10/M13 A3023 RMK A01 T10951130  RH  076%=      5-min Rain = 0
KGO1 121042Z 00000KT M10/M13 A3023 RMK A01 T10961130  RH  076%=      5-min Rain = 0
KGO1 121043Z 00000KT M10/M13 A3023 RMK A01 T10971131  RH  077%=      5-min Rain = 0
KGO1 121044Z 00000KT M10/M13 A3023 RMK A01 T10991133  RH  076%=      5-min Rain = 0
KGO1 121045Z 00000KT M10/M13 A3023 RMK A01 T11001134  RH  076%=      5-min Rain = 0
KGO1 121046Z 00000KT M10/M14 A3023 RMK A01 T11021135  RH  077%=      5-min Rain = 0
KGO1 121047Z 00000KT M10/M14 A3023 RMK A01 T11031135  RH  077%=      5-min Rain = 0
KGO1 121048Z 00000KT M10/M14 A3023 RMK A01 T11031136  RH  077%=      5-min Rain = 0
KGO1 121049Z 00000KT M10/M14 A3023 RMK A01 T11041136  RH  077%=      5-min Rain = 0
KGO1 121050Z 00000KT M11/M14 A3023 RMK A01 T11061137  RH  078%=      5-min Rain = 0
KGO1 121051Z 00000KT M11/M14 A3023 RMK A01 T11061137  RH  078%=      5-min Rain = 0
KGO1 121052Z 00000KT M11/M14 A3023 RMK A01 T11071137  RH  078%=      5-min Rain = 0
KGO1 121053Z 00000KT M11/M14 A3023 RMK A01 T11071137  RH  079%=      5-min Rain = 0
KGO1 121054Z 32000KT M11/M14 A3023 RMK A01 T11071135  RH  080%=      5-min Rain = 0
KGO1 121055Z 33001KT M11/M13 A3023 RMK A01 T11051131  RH  081%=      5-min Rain = 0
KGO1 121056Z 33000KT M10/M13 A3023 RMK A01 T11041129  RH  082%=      5-min Rain = 0
KGO1 121057Z 00000KT M10/M13 A3023 RMK A01 T11031127  RH  082%=      5-min Rain = 0
KGO1 121058Z 00000KT M10/M13 A3023 RMK A01 T11021126  RH  083%=      5-min Rain = 0
KGO1 121059Z 00000KT M10/M12 A3023 RMK A01 T11001123  RH  083%=      5-min Rain = 0
KGO1 121100Z 00000KT M10/M12 A3023 RMK A01 T10951116  RH  085%=      5-min Rain = 0
KGO1 121101Z 00000KT M09/M11 A3023 RMK A01 T10891109  RH  086%=      5-min Rain = 0
KGO1 121102Z 00000KT M08/M11 A3023 RMK A01 T10841105  RH  085%=      5-min Rain = 0
KGO1 121103Z 00000KT M08/M11 A3023 RMK A01 T10791105  RH  082%=      5-min Rain = 0
KGO1 121104Z 00000KT M08/M11 A3023 RMK A01 T10781109  RH  078%=      5-min Rain = 0
KGO1 121105Z 00000KT M08/M12 A3023 RMK A01 T10811115  RH  076%=      5-min Rain = 0
KGO1 121106Z 00000KT M08/M12 A3023 RMK A01 T10831117  RH  076%=      5-min Rain = 0
KGO1 121107Z 00000KT M08/M12 A3023 RMK A01 T10831116  RH  077%=      5-min Rain = 0
KGO1 121108Z 00000KT M09/M12 A3023 RMK A01 T10851122  RH  075%=      5-min Rain = 0
KGO1 121109Z 00000KT M09/M12 A3023 RMK A01 T10861120  RH  077%=      5-min Rain = 0
KGO1 121110Z 00000KT M09/M12 A3023 RMK A01 T10861121  RH  076%=      5-min Rain = 0
KGO1 121111Z 00000KT M09/M13 A3023 RMK A01 T10891126  RH  075%=      5-min Rain = 0
KGO1 121112Z 00000KT M09/M12 A3023 RMK A01 T10891121  RH  077%=      5-min Rain = 0
KGO1 121113Z 00000KT M09/M12 A3023 RMK A01 T10851117  RH  078%=      5-min Rain = 0
KGO1 121114Z 00000KT M09/M13 A3023 RMK A01 T10891127  RH  074%=      5-min Rain = 0
KGO1 121115Z 00000KT M09/M13 A3023 RMK A01 T10931131  RH  074%=      5-min Rain = 0
KGO1 121116Z 00000KT M09/M13 A3023 RMK A01 T10941130  RH  075%=      5-min Rain = 0
KGO1 121117Z 00000KT M09/M13 A3023 RMK A01 T10941127  RH  077%=      5-min Rain = 0
KGO1 121118Z 00000KT M09/M13 A3023 RMK A01 T10941127  RH  077%=      5-min Rain = 0
KGO1 121119Z 00000KT M09/M13 A3023 RMK A01 T10941127  RH  077%=      5-min Rain = 0
KGO1 121120Z 00000KT M10/M13 A3023 RMK A01 T10961130  RH  076%=      5-min Rain = 0
KGO1 121121Z 00000KT M10/M13 A3023 RMK A01 T10981132  RH  076%=      5-min Rain = 0
KGO1 121122Z 00000KT M10/M13 A3023 RMK A01 T10991133  RH  076%=      5-min Rain = 0
KGO1 121123Z 00000KT M10/M13 A3023 RMK A01 T11001133  RH  077%=      5-min Rain = 0
KGO1 121124Z 00000KT M10/M13 A3023 RMK A01 T11011133  RH  077%=      5-min Rain = 0
KGO1 121125Z 00000KT M10/M14 A3023 RMK A01 T11021135  RH  077%=      5-min Rain = 0
KGO1 121126Z 00000KT M10/M14 A3023 RMK A01 T11031136  RH  077%=      5-min Rain = 0
KGO1 121127Z 00000KT M10/M14 A3022 RMK A01 T11041136  RH  077%=      5-min Rain = 0
KGO1 121128Z 00000KT M11/M14 A3022 RMK A01 T11051136  RH  078%=      5-min Rain = 0
KGO1 121129Z 00000KT M11/M14 A3022 RMK A01 T11051136  RH  078%=      5-min Rain = 0
KGO1 121130Z 00000KT M10/M13 A3023 RMK A01 T11041134  RH  079%=      5-min Rain = 0
KGO1 121131Z 00000KT M10/M13 A3023 RMK A01 T11021132  RH  079%=      5-min Rain = 0
KGO1 121132Z 14000KT M10/M13 A3023 RMK A01 T10991128  RH  080%=      5-min Rain = 0
KGO1 121133Z 16001KT M10/M13 A3023 RMK A01 T10971126  RH  079%=      5-min Rain = 0
KGO1 121134Z 15001KT M10/M13 A3023 RMK A01 T10961127  RH  078%=      5-min Rain = 0
KGO1 121135Z 15001KT M09/M13 A3023 RMK A01 T10941125  RH  078%=      5-min Rain = 0
KGO1 121136Z 16002KT M09/M13 A3023 RMK A01 T10941127  RH  077%=      5-min Rain = 0
KGO1 121137Z 15002KT M09/M13 A3022 RMK A01 T10941126  RH  077%=      5-min Rain = 0
KGO1 121138Z 14002KT M09/M12 A3022 RMK A01 T10911120  RH  079%=      5-min Rain = 0
KGO1 121139Z 15002KT M09/M12 A3022 RMK A01 T10881118  RH  079%=      5-min Rain = 0
KGO1 121140Z 16002KT M09/M12 A3022 RMK A01 T10881121  RH  077%=      5-min Rain = 0
KGO1 121141Z 17003KT M09/M13 A3023 RMK A01 T10911129  RH  074%=      5-min Rain = 0
KGO1 121142Z 17003KT M10/M14 A3023 RMK A01 T10961135  RH  073%=      5-min Rain = 0
KGO1 121143Z 17003KT M10/M14 A3023 RMK A01 T10981136  RH  074%=      5-min Rain = 0
KGO1 121144Z 16003KT M10/M13 A3023 RMK A01 T10991133  RH  076%=      5-min Rain = 0
KGO1 121145Z 15004KT M10/M13 A3023 RMK A01 T10981129  RH  078%=      5-min Rain = 0
KGO1 121146Z 15004KT M10/M13 A3023 RMK A01 T10971126  RH  079%=      5-min Rain = 0
KGO1 121147Z 15004KT M10/M13 A3023 RMK A01 T10961125  RH  079%=      5-min Rain = 0
KGO1 121148Z 15004KT M10/M12 A3023 RMK A01 T10951124  RH  079%=      5-min Rain = 0
KGO1 121149Z 16004KT M09/M12 A3023 RMK A01 T10931122  RH  080%=      5-min Rain = 0
KGO1 121150Z 16004KT M09/M12 A3023 RMK A01 T10901118  RH  080%=      5-min Rain = 0
KGO1 121151Z 16005KT M09/M12 A3023 RMK A01 T10881117  RH  079%=      5-min Rain = 0
KGO1 121152Z 15005KT M09/M12 A3023 RMK A01 T10861116  RH  079%=      5-min Rain = 0
KGO1 121153Z 14005KT M08/M11 A3023 RMK A01 T10831112  RH  079%=      5-min Rain = 0
KGO1 121154Z 14006KT M08/M11 A3023 RMK A01 T10791107  RH  080%=      5-min Rain = 0
KGO1 121155Z 15005KT M08/M11 A3023 RMK A01 T10761106  RH  079%=      5-min Rain = 0
KGO1 121156Z 15005KT M08/M11 A3023 RMK A01 T10771114  RH  075%=      5-min Rain = 0
KGO1 121157Z 16005KT M08/M12 A3023 RMK A01 T10801120  RH  073%=      5-min Rain = 0
KGO1 121158Z 17004KT M08/M12 A3023 RMK A01 T10821118  RH  075%=      5-min Rain = 0
KGO1 121159Z 17004KT M08/M11 A3023 RMK A01 T10811114  RH  077%=      5-min Rain = 0
KGO1 121200Z 17005KT M08/M11 A3023 RMK A01 T10791111  RH  078%=      5-min Rain = 0
KGO1 121201Z 16005KT M08/M11 A3023 RMK A01 T10771109  RH  078%=      5-min Rain = 0
KGO1 121202Z 16005KT M08/M11 A3023 RMK A01 T10761108  RH  078%=      5-min Rain = 0
KGO1 121203Z 16006KT M08/M11 A3023 RMK A01 T10751107  RH  078%=      5-min Rain = 0
KGO1 121204Z 16005KT M07/M11 A3023 RMK A01 T10741107  RH  077%=      5-min Rain = 0
KGO1 121205Z 17005KT M07/M11 A3023 RMK A01 T10741110  RH  076%=      5-min Rain = 0
KGO1 121206Z 17005KT M08/M12 A3023 RMK A01 T10771116  RH  073%=      5-min Rain = 0
KGO1 121207Z 17005KT M08/M12 A3023 RMK A01 T10811122  RH  072%=      5-min Rain = 0
KGO1 121208Z 17005KT M08/M12 A3023 RMK A01 T10831121  RH  074%=      5-min Rain = 0
KGO1 121209Z 17005KT M08/M12 A3023 RMK A01 T10821117  RH  076%=      5-min Rain = 0
KGO1 121210Z 17005KT M08/M12 A3023 RMK A01 T10821116  RH  077%=      5-min Rain = 0
KGO1 121211Z 17005KT M08/M12 A3023 RMK A01 T10821115  RH  077%=      5-min Rain = 0
KGO1 121212Z 17005KT M08/M12 A3023 RMK A01 T10811115  RH  077%=      5-min Rain = 0
KGO1 121213Z 17005KT M08/M11 A3023 RMK A01 T10811114  RH  077%=      5-min Rain = 0
KGO1 121214Z 18005KT M08/M11 A3023 RMK A01 T10811114  RH  077%=      5-min Rain = 0
KGO1 121215Z 18005KT M08/M12 A3023 RMK A01 T10801115  RH  076%=      5-min Rain = 0
KGO1 121216Z 18005KT M08/M11 A3023 RMK A01 T10811114  RH  077%=      5-min Rain = 0
KGO1 121217Z 19005KT M08/M12 A3023 RMK A01 T10811115  RH  076%=      5-min Rain = 0
KGO1 121218Z 18005KT M08/M11 A3023 RMK A01 T10811114  RH  077%=      5-min Rain = 0
KGO1 121219Z 19005KT M08/M11 A3023 RMK A01 T10811113  RH  078%=      5-min Rain = 0
KGO1 121220Z 19005KT M08/M11 A3023 RMK A01 T10811114  RH  077%=      5-min Rain = 0
KGO1 121221Z 19005KT M08/M11 A3023 RMK A01 T10811114  RH  077%=      5-min Rain = 0
KGO1 121222Z 19005KT M08/M11 A3023 RMK A01 T10811114  RH  078%=      5-min Rain = 0
KGO1 121223Z 19005KT M08/M11 A3023 RMK A01 T10801112  RH  078%=      5-min Rain = 0
KGO1 121224Z 19005KT M08/M11 A3023 RMK A01 T10791112  RH  077%=      5-min Rain = 0
KGO1 121225Z 19005KT M08/M11 A3023 RMK A01 T10801113  RH  077%=      5-min Rain = 0
KGO1 121226Z 19005KT M08/M11 A3023 RMK A01 T10801112  RH  077%=      5-min Rain = 0
KGO1 121227Z 19005KT M08/M11 A3023 RMK A01 T10781109  RH  078%=      5-min Rain = 0
KGO1 121228Z 19005KT M08/M11 A3023 RMK A01 T10771109  RH  078%=      5-min Rain = 0
KGO1 121229Z 19005KT M08/M11 A3023 RMK A01 T10771111  RH  077%=      5-min Rain = 0
KGO1 121230Z 19005KT M08/M11 A3023 RMK A01 T10771112  RH  076%=      5-min Rain = 0
KGO1 121231Z 19005KT M08/M11 A3023 RMK A01 T10781112  RH  076%=      5-min Rain = 0
KGO1 121232Z 19006KT M08/M11 A3023 RMK A01 T10781112  RH  076%=      5-min Rain = 0
KGO1 121233Z 19006KT M08/M11 A3023 RMK A01 T10781112  RH  076%=      5-min Rain = 0
KGO1 121234Z 19006KT M08/M11 A3023 RMK A01 T10791114  RH  076%=      5-min Rain = 0
KGO1 121235Z 19005KT M08/M12 A3023 RMK A01 T10801115  RH  076%=      5-min Rain = 0
KGO1 121236Z 19005KT M08/M12 A3023 RMK A01 T10811115  RH  076%=      5-min Rain = 0
KGO1 121237Z 19005KT M08/M11 A3023 RMK A01 T10801114  RH  077%=      5-min Rain = 0
KGO1 121238Z 19005KT M08/M11 A3023 RMK A01 T10801113  RH  077%=      5-min Rain = 0
KGO1 121239Z 19005KT M08/M11 A3023 RMK A01 T10791112  RH  078%=      5-min Rain = 0
KGO1 121240Z 18005KT M08/M11 A3023 RMK A01 T10791111  RH  077%=      5-min Rain = 0
KGO1 121241Z 18005KT M08/M11 A3023 RMK A01 T10781111  RH  077%=      5-min Rain = 0
KGO1 121242Z 19005KT M08/M11 A3023 RMK A01 T10771110  RH  077%=      5-min Rain = 0
KGO1 121243Z 19005KT M08/M11 A3023 RMK A01 T10761109  RH  077%=      5-min Rain = 0
KGO1 121244Z 19005KT M08/M11 A3023 RMK A01 T10751108  RH  077%=      5-min Rain = 0
KGO1 121245Z 19005KT M08/M11 A3023 RMK A01 T10751108  RH  077%=      5-min Rain = 0
KGO1 121246Z 19005KT M07/M11 A3023 RMK A01 T10741109  RH  076%=      5-min Rain = 0
KGO1 121247Z 19005KT M08/M11 A3022 RMK A01 T10751110  RH  076%=      5-min Rain = 0
KGO1 121248Z 19005KT M08/M11 A3022 RMK A01 T10751110  RH  076%=      5-min Rain = 0
KGO1 121249Z 19004KT M08/M11 A3022 RMK A01 T10751110  RH  076%=      5-min Rain = 0
KGO1 121250Z 19004KT M07/M11 A3023 RMK A01 T10741109  RH  076%=      5-min Rain = 0
KGO1 121251Z 19004KT M08/M11 A3023 RMK A01 T10751109  RH  076%=      5-min Rain = 0
KGO1 121252Z 19004KT M08/M11 A3023 RMK A01 T10751109  RH  076%=      5-min Rain = 0
KGO1 121253Z 19004KT M08/M11 A3023 RMK A01 T10751111  RH  076%=      5-min Rain = 0
KGO1 121254Z 19004KT M08/M11 A3023 RMK A01 T10771113  RH  075%=      5-min Rain = 0
KGO1 121255Z 19004KT M08/M11 A3023 RMK A01 T10781113  RH  076%=      5-min Rain = 0
KGO1 121256Z 19004KT M08/M11 A3023 RMK A01 T10791114  RH  076%=      5-min Rain = 0
KGO1 121257Z 19004KT M08/M12 A3023 RMK A01 T10801116  RH  075%=      5-min Rain = 0
KGO1 121258Z 20004KT M08/M12 A3023 RMK A01 T10811116  RH  076%=      5-min Rain = 0
KGO1 121259Z 21004KT M08/M12 A3023 RMK A01 T10821116  RH  076%=      5-min Rain = 0
KGO1 121300Z 20003KT M08/M11 A3023 RMK A01 T10811114  RH  077%=      5-min Rain = 0
KGO1 121301Z 21003KT M08/M11 A3023 RMK A01 T10811112  RH  078%=      5-min Rain = 0
KGO1 121302Z 21003KT M08/M11 A3023 RMK A01 T10801113  RH  078%=      5-min Rain = 0
KGO1 121303Z 21003KT M08/M11 A3023 RMK A01 T10801112  RH  078%=      5-min Rain = 0
KGO1 121304Z 21003KT M08/M11 A3023 RMK A01 T10791111  RH  078%=      5-min Rain = 0
KGO1 121305Z 21003KT M08/M11 A3023 RMK A01 T10791111  RH  078%=      5-min Rain = 0
KGO1 121306Z 21003KT M08/M11 A3023 RMK A01 T10791111  RH  077%=      5-min Rain = 0
KGO1 121307Z 21003KT M08/M11 A3023 RMK A01 T10791111  RH  078%=      5-min Rain = 0
KGO1 121308Z 21002KT M08/M11 A3023 RMK A01 T10791112  RH  077%=      5-min Rain = 0
KGO1 121309Z 21002KT M08/M12 A3023 RMK A01 T10801115  RH  076%=      5-min Rain = 0
KGO1 121310Z 22002KT M08/M12 A3023 RMK A01 T10821116  RH  076%=      5-min Rain = 0
KGO1 121311Z 22002KT M08/M12 A3024 RMK A01 T10821116  RH  077%=      5-min Rain = 0
KGO1 121312Z 22002KT M08/M12 A3024 RMK A01 T10831116  RH  077%=      5-min Rain = 0
KGO1 121313Z 22002KT M08/M12 A3024 RMK A01 T10841116  RH  077%=      5-min Rain = 0
KGO1 121314Z 21002KT M09/M12 A3024 RMK A01 T10851118  RH  077%=      5-min Rain = 0
KGO1 121315Z 21002KT M09/M12 A3024 RMK A01 T10861120  RH  076%=      5-min Rain = 0
KGO1 121316Z 21002KT M09/M12 A3024 RMK A01 T10871122  RH  076%=      5-min Rain = 0
KGO1 121317Z 21002KT M09/M12 A3024 RMK A01 T10881123  RH  076%=      5-min Rain = 0
KGO1 121318Z 21002KT M09/M12 A3024 RMK A01 T10891123  RH  076%=      5-min Rain = 0
KGO1 121319Z 21002KT M09/M12 A3024 RMK A01 T10901122  RH  078%=      5-min Rain = 0
KGO1 121320Z 21001KT M09/M12 A3024 RMK A01 T10911120  RH  079%=      5-min Rain = 0
KGO1 121321Z 21002KT M09/M12 A3024 RMK A01 T10901117  RH  081%=      5-min Rain = 0
KGO1 121322Z 21002KT M09/M12 A3024 RMK A01 T10891115  RH  081%=      5-min Rain = 0
KGO1 121323Z 20002KT M09/M11 A3024 RMK A01 T10871113  RH  082%=      5-min Rain = 0
KGO1 121324Z 19003KT M09/M11 A3024 RMK A01 T10861111  RH  082%=      5-min Rain = 0
KGO1 121325Z 19003KT M08/M11 A3024 RMK A01 T10841110  RH  082%=      5-min Rain = 0
KGO1 121326Z 19003KT M08/M11 A3024 RMK A01 T10841111  RH  081%=      5-min Rain = 0
KGO1 121327Z 18003KT M08/M11 A3024 RMK A01 T10831110  RH  080%=      5-min Rain = 0
KGO1 121328Z 18004KT M08/M11 A3024 RMK A01 T10831111  RH  080%=      5-min Rain = 0
KGO1 121329Z 18004KT M08/M11 A3024 RMK A01 T10821111  RH  080%=      5-min Rain = 0
KGO1 121330Z 18004KT M08/M11 A3024 RMK A01 T10821110  RH  080%=      5-min Rain = 0
KGO1 121331Z 19004KT M08/M11 A3024 RMK A01 T10811110  RH  080%=      5-min Rain = 0
KGO1 121332Z 18004KT M08/M11 A3024 RMK A01 T10821113  RH  078%=      5-min Rain = 0
KGO1 121333Z 18004KT M08/M11 A3025 RMK A01 T10831114  RH  078%=      5-min Rain = 0
KGO1 121334Z 18004KT M09/M12 A3025 RMK A01 T10851116  RH  078%=      5-min Rain = 0
KGO1 121335Z 18004KT M09/M11 A3025 RMK A01 T10851114  RH  079%=      5-min Rain = 0
KGO1 121336Z 18004KT M08/M11 A3025 RMK A01 T10841113  RH  080%=      5-min Rain = 0
KGO1 121337Z 19004KT M08/M11 A3025 RMK A01 T10841113  RH  079%=      5-min Rain = 0
KGO1 121338Z 19004KT M08/M11 A3025 RMK A01 T10841114  RH  079%=      5-min Rain = 0
KGO1 121339Z 19004KT M08/M11 A3025 RMK A01 T10841112  RH  080%=      5-min Rain = 0
KGO1 121340Z 19005KT M08/M11 A3025 RMK A01 T10831111  RH  080%=      5-min Rain = 0
KGO1 121341Z 19005KT M08/M11 A3025 RMK A01 T10821109  RH  081%=      5-min Rain = 0
KGO1 121342Z 19005KT M08/M11 A3025 RMK A01 T10811110  RH  080%=      5-min Rain = 0
KGO1 121343Z 19005KT M08/M11 A3025 RMK A01 T10821113  RH  079%=      5-min Rain = 0
KGO1 121344Z 19005KT M08/M11 A3025 RMK A01 T10841114  RH  079%=      5-min Rain = 0
KGO1 121345Z 19005KT M08/M11 A3025 RMK A01 T10841113  RH  079%=      5-min Rain = 0
KGO1 121346Z 18005KT M08/M11 A3025 RMK A01 T10841113  RH  080%=      5-min Rain = 0
KGO1 121347Z 19005KT M08/M11 A3025 RMK A01 T10841111  RH  081%=      5-min Rain = 0
KGO1 121348Z 19005KT M08/M11 A3025 RMK A01 T10831110  RH  081%=      5-min Rain = 0
KGO1 121349Z 19005KT M08/M11 A3025 RMK A01 T10831110  RH  081%=      5-min Rain = 0
KGO1 121350Z 19005KT M08/M11 A3025 RMK A01 T10831110  RH  081%=      5-min Rain = 0
KGO1 121351Z 19005KT M08/M11 A3025 RMK A01 T10831110  RH  081%=      5-min Rain = 0
KGO1 121352Z 19005KT M08/M11 A3025 RMK A01 T10821109  RH  081%=      5-min Rain = 0
KGO1 121353Z 19005KT M08/M11 A3025 RMK A01 T10811108  RH  081%=      5-min Rain = 0
KGO1 121354Z 19005KT M08/M11 A3025 RMK A01 T10801107  RH  081%=      5-min Rain = 0
KGO1 121355Z 19005KT M08/M11 A3025 RMK A01 T10801108  RH  081%=      5-min Rain = 0
KGO1 121356Z 19004KT M08/M11 A3025 RMK A01 T10801109  RH  080%=      5-min Rain = 0
KGO1 121357Z 19004KT M08/M11 A3025 RMK A01 T10801109  RH  080%=      5-min Rain = 0
KGO1 121358Z 19004KT M08/M11 A3025 RMK A01 T10801109  RH  080%=      5-min Rain = 0
KGO1 121359Z 19004KT M08/M11 A3025 RMK A01 T10811110  RH  079%=      5-min Rain = 0
KGO1 121400Z 19004KT M08/M11 A3025 RMK A01 T10811111  RH  079%=      5-min Rain = 0
KGO1 121401Z 19004KT M08/M11 A3025 RMK A01 T10821111  RH  079%=      5-min Rain = 0
KGO1 121402Z 19004KT M08/M11 A3025 RMK A01 T10821111  RH  080%=      5-min Rain = 0
KGO1 121403Z 20004KT M08/M11 A3025 RMK A01 T10821111  RH  080%=      5-min Rain = 0
KGO1 121404Z 20003KT M08/M11 A3025 RMK A01 T10821110  RH  080%=      5-min Rain = 0
KGO1 121405Z 21003KT M08/M11 A3025 RMK A01 T10821110  RH  080%=      5-min Rain = 0
KGO1 121406Z 21003KT M08/M11 A3025 RMK A01 T10821110  RH  080%=      5-min Rain = 0
KGO1 121407Z 20003KT M08/M11 A3025 RMK A01 T10821109  RH  081%=      5-min Rain = 0
KGO1 121408Z 20003KT M08/M11 A3025 RMK A01 T10821109  RH  081%=      5-min Rain = 0
KGO1 121409Z 20003KT M08/M11 A3025 RMK A01 T10811109  RH  080%=      5-min Rain = 0
KGO1 121410Z 20002KT M08/M11 A3025 RMK A01 T10811110  RH  080%=      5-min Rain = 0
KGO1 121411Z 21002KT M08/M11 A3024 RMK A01 T10811110  RH  080%=      5-min Rain = 0
KGO1 121412Z 20002KT M08/M11 A3024 RMK A01 T10811110  RH  080%=      5-min Rain = 0
KGO1 121413Z 20002KT M08/M11 A3024 RMK A01 T10801110  RH  079%=      5-min Rain = 0
KGO1 121414Z 19002KT M08/M11 A3024 RMK A01 T10801110  RH  079%=      5-min Rain = 0
KGO1 121415Z 19002KT M08/M11 A3024 RMK A01 T10801110  RH  079%=      5-min Rain = 0
KGO1 121416Z 18003KT M08/M11 A3024 RMK A01 T10791109  RH  079%=      5-min Rain = 0
KGO1 121417Z 18003KT M08/M11 A3024 RMK A01 T10781108  RH  079%=      5-min Rain = 0
KGO1 121418Z 18003KT M08/M11 A3024 RMK A01 T10771107  RH  079%=      5-min Rain = 0
KGO1 121419Z 17003KT M08/M11 A3024 RMK A01 T10761107  RH  078%=      5-min Rain = 0
KGO1 121420Z 17003KT M08/M11 A3024 RMK A01 T10751107  RH  078%=      5-min Rain = 0
KGO1 121421Z 17003KT M07/M11 A3024 RMK A01 T10741107  RH  078%=      5-min Rain = 0
KGO1 121422Z 18003KT M07/M11 A3024 RMK A01 T10741106  RH  077%=      5-min Rain = 0
KGO1 121423Z 18003KT M07/M11 A3024 RMK A01 T10731107  RH  077%=      5-min Rain = 0
KGO1 121424Z 18003KT M07/M11 A3024 RMK A01 T10731107  RH  077%=      5-min Rain = 0
KGO1 121425Z 17003KT M07/M11 A3024 RMK A01 T10731107  RH  077%=      5-min Rain = 0
KGO1 121426Z 16003KT M07/M11 A3024 RMK A01 T10731107  RH  077%=      5-min Rain = 0
KGO1 121427Z 16003KT M07/M11 A3024 RMK A01 T10731107  RH  077%=      5-min Rain = 0
KGO1 121428Z 17003KT M07/M11 A3024 RMK A01 T10721106  RH  076%=      5-min Rain = 0
KGO1 121429Z 17002KT M07/M11 A3024 RMK A01 T10711105  RH  076%=      5-min Rain = 0
KGO1 121430Z 18001KT M07/M11 A3024 RMK A01 T10691105  RH  076%=      5-min Rain = 0
KGO1 121431Z 19001KT M07/M10 A3024 RMK A01 T10681104  RH  075%=      5-min Rain = 0
KGO1 121432Z 20002KT M07/M11 A3025 RMK A01 T10671105  RH  075%=      5-min Rain = 0
KGO1 121433Z 19002KT M07/M11 A3025 RMK A01 T10681106  RH  074%=      5-min Rain = 0
KGO1 121434Z 19002KT M07/M11 A3024 RMK A01 T10681106  RH  075%=      5-min Rain = 0
KGO1 121435Z 20003KT M07/M11 A3024 RMK A01 T10681105  RH  075%=      5-min Rain = 0
KGO1 121436Z 19004KT M07/M11 A3024 RMK A01 T10691105  RH  075%=      5-min Rain = 0
KGO1 121437Z 19003KT M07/M11 A3024 RMK A01 T10691105  RH  076%=      5-min Rain = 0
KGO1 121438Z 19002KT M07/M10 A3024 RMK A01 T10691104  RH  076%=      5-min Rain = 0
KGO1 121439Z 19003KT M07/M11 A3024 RMK A01 T10691105  RH  076%=      5-min Rain = 0
KGO1 121440Z 18004KT M07/M11 A3024 RMK A01 T10681105  RH  075%=      5-min Rain = 0
KGO1 121441Z 18004KT M07/M11 A3024 RMK A01 T10681105  RH  075%=      5-min Rain = 0
KGO1 121442Z 18004KT M07/M10 A3024 RMK A01 T10671103  RH  076%=      5-min Rain = 0
KGO1 121443Z 18004KT M07/M10 A3024 RMK A01 T10651100  RH  076%=      5-min Rain = 0
KGO1 121444Z 17004KT M06/M10 A3024 RMK A01 T10641099  RH  076%=      5-min Rain = 0
KGO1 121445Z 18004KT M06/M10 A3024 RMK A01 T10631098  RH  076%=      5-min Rain = 0
KGO1 121446Z 18004KT M06/M10 A3024 RMK A01 T10611097  RH  076%=      5-min Rain = 0
KGO1 121447Z 18005KT M06/M10 A3024 RMK A01 T10611097  RH  076%=      5-min Rain = 0
KGO1 121448Z 18005KT M06/M10 A3024 RMK A01 T10601097  RH  075%=      5-min Rain = 0
KGO1 121449Z 18005KT M06/M10 A3024 RMK A01 T10591096  RH  075%=      5-min Rain = 0
KGO1 121450Z 18005KT M06/M10 A3024 RMK A01 T10591096  RH  075%=      5-min Rain = 0
KGO1 121451Z 17005KT M06/M10 A3025 RMK A01 T10581095  RH  075%=      5-min Rain = 0
KGO1 121452Z 17004KT M06/M10 A3025 RMK A01 T10571095  RH  075%=      5-min Rain = 0
KGO1 121453Z 18005KT M06/M10 A3025 RMK A01 T10561095  RH  074%=      5-min Rain = 0
KGO1 121454Z 18005KT M06/M10 A3025 RMK A01 T10561095  RH  074%=      5-min Rain = 0
KGO1 121455Z 17005KT M06/M10 A3025 RMK A01 T10561095  RH  074%=      5-min Rain = 0
KGO1 121456Z 17005KT M06/M10 A3025 RMK A01 T10551095  RH  074%=      5-min Rain = 0
KGO1 121457Z 17005KT M06/M09 A3025 RMK A01 T10551094  RH  074%=      5-min Rain = 0
KGO1 121458Z 17004KT M05/M09 A3025 RMK A01 T10541094  RH  074%=      5-min Rain = 0
KGO1 121459Z 17003KT M05/M09 A3025 RMK A01 T10531093  RH  074%=      5-min Rain = 0
KGO1 121500Z 17004KT M05/M09 A3025 RMK A01 T10521091  RH  074%=      5-min Rain = 0
KGO1 121501Z 17004KT M05/M09 A3025 RMK A01 T10511091  RH  073%=      5-min Rain = 0
KGO1 121502Z 17004KT M05/M09 A3025 RMK A01 T10501092  RH  072%=      5-min Rain = 0
KGO1 121503Z 17004KT M05/M09 A3025 RMK A01 T10501091  RH  073%=      5-min Rain = 0
KGO1 121504Z 16003KT M05/M09 A3025 RMK A01 T10491091  RH  072%=      5-min Rain = 0
KGO1 121505Z 16004KT M05/M09 A3025 RMK A01 T10481089  RH  073%=      5-min Rain = 0
KGO1 121506Z 16006KT M05/M09 A3025 RMK A01 T10461086  RH  073%=      5-min Rain = 0
KGO1 121507Z 16005KT M05/M09 A3025 RMK A01 T10451087  RH  072%=      5-min Rain = 0
KGO1 121508Z 15005KT M05/M09 A3025 RMK A01 T10451088  RH  072%=      5-min Rain = 0
KGO1 121509Z 16005KT M04/M09 A3026 RMK A01 T10441088  RH  072%=      5-min Rain = 0
KGO1 121510Z 16005KT M04/M09 A3026 RMK A01 T10441088  RH  071%=      5-min Rain = 0
KGO1 121511Z 16005KT M04/M09 A3026 RMK A01 T10441088  RH  071%=      5-min Rain = 0
KGO1 121512Z 17005KT M04/M09 A3026 RMK A01 T10431087  RH  071%=      5-min Rain = 0
KGO1 121513Z 16006KT M04/M09 A3026 RMK A01 T10421086  RH  072%=      5-min Rain = 0
KGO1 121514Z 16006KT M04/M09 A3025 RMK A01 T10421088  RH  071%=      5-min Rain = 0
KGO1 121515Z 16006KT M04/M09 A3025 RMK A01 T10421089  RH  070%=      5-min Rain = 0
KGO1 121516Z 17005KT M04/M09 A3025 RMK A01 T10421087  RH  071%=      5-min Rain = 0
KGO1 121517Z 17005KT M04/M08 A3025 RMK A01 T10411084  RH  072%=      5-min Rain = 0
KGO1 121518Z 17006KT M04/M09 A3025 RMK A01 T10401085  RH  071%=      5-min Rain = 0
KGO1 121519Z 17007KT M04/M09 A3025 RMK A01 T10401087  RH  070%=      5-min Rain = 0
KGO1 121520Z 17006KT M04/M09 A3025 RMK A01 T10401087  RH  070%=      5-min Rain = 0
KGO1 121521Z 16006KT M04/M09 A3025 RMK A01 T10401086  RH  070%=      5-min Rain = 0
KGO1 121522Z 16007KT M04/M09 A3025 RMK A01 T10391086  RH  070%=      5-min Rain = 0
KGO1 121523Z 16006KT M04/M09 A3025 RMK A01 T10381086  RH  069%=      5-min Rain = 0
KGO1 121524Z 17007KT M04/M09 A3025 RMK A01 T10371086  RH  069%=      5-min Rain = 0
KGO1 121525Z 17007KT M04/M09 A3026 RMK A01 T10371087  RH  068%=      5-min Rain = 0
KGO1 121526Z 17007KT M04/M09 A3026 RMK A01 T10381086  RH  069%=      5-min Rain = 0
KGO1 121527Z 17007KT M04/M09 A3026 RMK A01 T10381088  RH  068%=      5-min Rain = 0
KGO1 121528Z 17007KT M04/M09 A3025 RMK A01 T10381088  RH  068%=      5-min Rain = 0
KGO1 121529Z 17007KT M04/M09 A3026 RMK A01 T10381088  RH  068%=      5-min Rain = 0
KGO1 121530Z 17007KT M04/M09 A3026 RMK A01 T10381088  RH  068%=      5-min Rain = 0
KGO1 121531Z 16007KT M04/M09 A3026 RMK A01 T10381088  RH  068%=      5-min Rain = 0
KGO1 121532Z 16007KT M04/M09 A3026 RMK A01 T10371086  RH  069%=      5-min Rain = 0
KGO1 121533Z 16007KT M04/M09 A3026 RMK A01 T10351085  RH  068%=      5-min Rain = 0
KGO1 121534Z 16007KT M04/M09 A3025 RMK A01 T10351086  RH  067%=      5-min Rain = 0
KGO1 121535Z 16007KT M04/M09 A3025 RMK A01 T10361089  RH  067%=      5-min Rain = 0
KGO1 121536Z 15007KT M04/M09 A3025 RMK A01 T10361087  RH  067%=      5-min Rain = 0
KGO1 121537Z 16007KT M03/M09 A3025 RMK A01 T10341087  RH  067%=      5-min Rain = 0
KGO1 121538Z 16008KT M04/M09 A3025 RMK A01 T10351089  RH  066%=      5-min Rain = 0
KGO1 121539Z 15008KT M04/M09 A3025 RMK A01 T10361089  RH  066%=      5-min Rain = 0
KGO1 121540Z 15008KT M04/M09 A3025 RMK A01 T10361089  RH  067%=      5-min Rain = 0
KGO1 121541Z 16007KT M04/M09 A3025 RMK A01 T10361089  RH  067%=      5-min Rain = 0
KGO1 121542Z 16007KT M04/M09 A3025 RMK A01 T10351088  RH  067%=      5-min Rain = 0
KGO1 121543Z 16007KT M03/M09 A3025 RMK A01 T10341087  RH  067%=      5-min Rain = 0
KGO1 121544Z 15006KT M03/M09 A3025 RMK A01 T10341088  RH  066%=      5-min Rain = 0
KGO1 121545Z 15007KT M03/M09 A3025 RMK A01 T10331087  RH  066%=      5-min Rain = 0
KGO1 121546Z 15008KT M03/M09 A3025 RMK A01 T10321088  RH  065%=      5-min Rain = 0
KGO1 121547Z 16008KT M03/M09 A3025 RMK A01 T10321087  RH  066%=      5-min Rain = 0
KGO1 121548Z 15009KT M03/M09 A3025 RMK A01 T10311087  RH  065%=      5-min Rain = 0
KGO1 121549Z 15010KT M03/M09 A3025 RMK A01 T10321089  RH  065%=      5-min Rain = 0
KGO1 121550Z 16010KT M03/M09 A3025 RMK A01 T10331090  RH  065%=      5-min Rain = 0
KGO1 121551Z 16009KT M03/M09 A3025 RMK A01 T10341090  RH  065%=      5-min Rain = 0
KGO1 121552Z 15010KT M03/M09 A3025 RMK A01 T10341089  RH  065%=      5-min Rain = 0
KGO1 121553Z 16010KT M03/M09 A3025 RMK A01 T10341090  RH  065%=      5-min Rain = 0
KGO1 121554Z 15010KT M04/M09 A3025 RMK A01 T10351091  RH  065%=      5-min Rain = 0
KGO1 121555Z 16011KT M04/M09 A3025 RMK A01 T10361091  RH  066%=      5-min Rain = 0
KGO1 121556Z 16010KT M04/M09 A3025 RMK A01 T10361091  RH  066%=      5-min Rain = 0
KGO1 121557Z 16010KT M04/M09 A3025 RMK A01 T10351090  RH  066%=      5-min Rain = 0
KGO1 121558Z 15011KT M03/M09 A3025 RMK A01 T10341090  RH  066%=      5-min Rain = 0
KGO1 121559Z 15011KT M03/M09 A3025 RMK A01 T10331090  RH  065%=      5-min Rain = 0
KGO1 121600Z 15011KT M03/M09 A3025 RMK A01 T10331090  RH  064%=      5-min Rain = 0
KGO1 121601Z 15010KT M03/M09 A3025 RMK A01 T10331091  RH  064%=      5-min Rain = 0
KGO1 121602Z 15010KT M03/M09 A3025 RMK A01 T10341092  RH  064%=      5-min Rain = 0
KGO1 121603Z 14009KT M03/M09 A3025 RMK A01 T10331092  RH  064%=      5-min Rain = 0
KGO1 121604Z 14010KT M03/M09 A3025 RMK A01 T10331092  RH  064%=      5-min Rain = 0
KGO1 121605Z 15009KT M03/M09 A3025 RMK A01 T10331092  RH  064%=      5-min Rain = 0
KGO1 121606Z 14009KT M03/M09 A3025 RMK A01 T10321092  RH  063%=      5-min Rain = 0
KGO1 121607Z 14009KT M03/M09 A3026 RMK A01 T10321092  RH  063%=      5-min Rain = 0
KGO1 121608Z 14008KT M03/M09 A3026 RMK A01 T10321092  RH  063%=      5-min Rain = 0
KGO1 121609Z 15008KT M03/M09 A3025 RMK A01 T10341094  RH  063%=      5-min Rain = 0
KGO1 121610Z 16009KT M03/M09 A3025 RMK A01 T10321091  RH  064%=      5-min Rain = 0
KGO1 121611Z 15009KT M03/M09 A3025 RMK A01 T10291090  RH  063%=      5-min Rain = 0
KGO1 121612Z 15011KT M03/M09 A3025 RMK A01 T10281090  RH  062%=      5-min Rain = 0
KGO1 121613Z 16009KT M03/M09 A3025 RMK A01 T10271092  RH  061%=      5-min Rain = 0
KGO1 121614Z 17010KT M03/M09 A3025 RMK A01 T10271092  RH  061%=      5-min Rain = 0
KGO1 121615Z 16009KT M03/M09 A3025 RMK A01 T10281094  RH  061%=      5-min Rain = 0
KGO1 121616Z 16009KT M03/M10 A3025 RMK A01 T10301095  RH  061%=      5-min Rain = 0
KGO1 121617Z 15009KT M03/M10 A3025 RMK A01 T10321095  RH  062%=      5-min Rain = 0
KGO1 121618Z 15009KT M03/M09 A3025 RMK A01 T10301093  RH  062%=      5-min Rain = 0
KGO1 121619Z 16009KT M03/M09 A3026 RMK A01 T10271091  RH  062%=      5-min Rain = 0
KGO1 121620Z 15009KT M03/M09 A3026 RMK A01 T10261091  RH  061%=      5-min Rain = 0
KGO1 121621Z 15009KT M03/M09 A3026 RMK A01 T10261092  RH  060%=      5-min Rain = 0
KGO1 121622Z 14009KT M03/M09 A3026 RMK A01 T10261092  RH  060%=      5-min Rain = 0
KGO1 121623Z 15010KT M02/M09 A3025 RMK A01 T10241090  RH  061%=      5-min Rain = 0
KGO1 121624Z 15010KT M02/M09 A3025 RMK A01 T10221090  RH  060%=      5-min Rain = 0
KGO1 121625Z 16010KT M02/M09 A3025 RMK A01 T10221092  RH  059%=      5-min Rain = 0
KGO1 121626Z 17009KT M02/M09 A3025 RMK A01 T10241093  RH  059%=      5-min Rain = 0
KGO1 121627Z 16009KT M02/M09 A3025 RMK A01 T10231091  RH  060%=      5-min Rain = 0
KGO1 121628Z 15010KT M02/M09 A3025 RMK A01 T10221091  RH  059%=      5-min Rain = 0
KGO1 121629Z 16010KT M02/M09 A3025 RMK A01 T10211090  RH  059%=      5-min Rain = 0
KGO1 121630Z 15009KT M02/M09 A3025 RMK A01 T10201091  RH  058%=      5-min Rain = 0
KGO1 121631Z 15009KT M02/M09 A3025 RMK A01 T10201091  RH  058%=      5-min Rain = 0
KGO1 121632Z 16010KT M02/M09 A3025 RMK A01 T10181089  RH  058%=      5-min Rain = 0
KGO1 121633Z 16010KT M02/M09 A3025 RMK A01 T10161089  RH  058%=      5-min Rain = 0
KGO1 121634Z 16010KT M02/M09 A3025 RMK A01 T10171091  RH  057%=      5-min Rain = 0
KGO1 121635Z 17009KT M02/M09 A3025 RMK A01 T10171091  RH  057%=      5-min Rain = 0
KGO1 121636Z 15008KT M02/M09 A3025 RMK A01 T10161090  RH  057%=      5-min Rain = 0
KGO1 121637Z 15011KT M02/M09 A3025 RMK A01 T10151090  RH  057%=      5-min Rain = 0
KGO1 121638Z 15010KT M02/M09 A3025 RMK A01 T10161090  RH  057%=      5-min Rain = 0
KGO1 121639Z 16011KT M02/M09 A3025 RMK A01 T10151090  RH  057%=      5-min Rain = 0
KGO1 121640Z 16011KT M01/M09 A3025 RMK A01 T10141089  RH  057%=      5-min Rain = 0
KGO1 121641Z 16011KT M01/M09 A3025 RMK A01 T10131090  RH  056%=      5-min Rain = 0
KGO1 121642Z 16010KT M02/M09 A3025 RMK A01 T10151092  RH  056%=      5-min Rain = 0
KGO1 121643Z 17011KT M01/M09 A3025 RMK A01 T10131089  RH  057%=      5-min Rain = 0
KGO1 121644Z 17010KT M01/M09 A3025 RMK A01 T10131091  RH  056%=      5-min Rain = 0
KGO1 121645Z 16012KT M01/M09 A3025 RMK A01 T10141091  RH  056%=      5-min Rain = 0
KGO1 121646Z 17012KT M01/M09 A3025 RMK A01 T10141090  RH  056%=      5-min Rain = 0
KGO1 121647Z 16011KT M01/M09 A3025 RMK A01 T10121089  RH  056%=      5-min Rain = 0
KGO1 121648Z 16012KT M01/M09 A3025 RMK A01 T10121090  RH  055%=      5-min Rain = 0
KGO1 121649Z 16010KT M01/M09 A3025 RMK A01 T10131091  RH  055%=      5-min Rain = 0
KGO1 121650Z 16010KT M01/M09 A3025 RMK A01 T10131091  RH  055%=      5-min Rain = 0
KGO1 121651Z 15011KT M01/M09 A3025 RMK A01 T10131091  RH  055%=      5-min Rain = 0
KGO1 121652Z 15012KT M01/M09 A3025 RMK A01 T10131091  RH  055%=      5-min Rain = 0
KGO1 121653Z 15011KT M01/M09 A3025 RMK A01 T10131091  RH  055%=      5-min Rain = 0
KGO1 121654Z 16012KT M01/M09 A3025 RMK A01 T10121090  RH  055%=      5-min Rain = 0
KGO1 121655Z 16013KT M01/M09 A3024 RMK A01 T10101090  RH  055%=      5-min Rain = 0
KGO1 121656Z 16012KT M01/M09 A3024 RMK A01 T10121092  RH  054%=      5-min Rain = 0
KGO1 121657Z 16011KT M01/M09 A3024 RMK A01 T10101089  RH  055%=      5-min Rain = 0
KGO1 121658Z 18011KT M01/M09 A3024 RMK A01 T10081088  RH  054%=      5-min Rain = 0
KGO1 121659Z 17011KT M01/M09 A3024 RMK A01 T10071089  RH  054%=      5-min Rain = 0
KGO1 121700Z 16010KT M01/M09 A3024 RMK A01 T10071090  RH  054%=      5-min Rain = 0
KGO1 121701Z 17011KT M01/M09 A3024 RMK A01 T10071089  RH  054%=      5-min Rain = 0
KGO1 121702Z 17013KT M01/M09 A3024 RMK A01 T10061089  RH  053%=      5-min Rain = 0
KGO1 121703Z 17013KT M01/M09 A3024 RMK A01 T10061089  RH  053%=      5-min Rain = 0
KGO1 121704Z 18011KT M00/M09 A3024 RMK A01 T10041088  RH  053%=      5-min Rain = 0
KGO1 121705Z 17011KT M00/M09 A3024 RMK A01 T10031088  RH  053%=      5-min Rain = 0
KGO1 121706Z 17011KT M00/M09 A3024 RMK A01 T10031089  RH  052%=      5-min Rain = 0
KGO1 121707Z 17010KT M00/M09 A3024 RMK A01 T10031089  RH  052%=      5-min Rain = 0
KGO1 121708Z 17009KT M00/M09 A3024 RMK A01 T10021088  RH  052%=      5-min Rain = 0
KGO1 121709Z 16010KT 00/M09 A3024 RMK A01 T00011086  RH  052%=      5-min Rain = 0
KGO1 121710Z 16012KT 00/M09 A3024 RMK A01 T00031088  RH  051%=      5-min Rain = 0
KGO1 121711Z 16012KT 00/M09 A3024 RMK A01 T00011090  RH  051%=      5-min Rain = 0
KGO1 121712Z 16011KT 00/M09 A3024 RMK A01 T00011089  RH  051%=      5-min Rain = 0
KGO1 121713Z 16012KT 00/M09 A3024 RMK A01 T00021089  RH  051%=      5-min Rain = 0
KGO1 121714Z 15012KT 00/09 A3024 RMK A01 T00000-91  RH  050%=      5-min Rain = 0
KGO1 121715Z 16011KT 00/09 A3024 RMK A01 T00-00-90  RH  051%=      5-min Rain = 0
KGO1 121716Z 16011KT 00/M09 A3023 RMK A01 T00011089  RH  051%=      5-min Rain = 0
KGO1 121717Z 15012KT 00/M09 A3023 RMK A01 T00021089  RH  050%=      5-min Rain = 0
KGO1 121718Z 17011KT 00/M09 A3023 RMK A01 T00011091  RH  050%=      5-min Rain = 0
KGO1 121719Z 15012KT 00/09 A3023 RMK A01 T00-00-91  RH  050%=      5-min Rain = 0
KGO1 121720Z 15011KT 00/M09 A3023 RMK A01 T00031088  RH  051%=      5-min Rain = 0
KGO1 121721Z 15010KT 00/M09 A3023 RMK A01 T00041090  RH  050%=      5-min Rain = 0
KGO1 121722Z 16011KT 00/M09 A3023 RMK A01 T00031091  RH  049%=      5-min Rain = 0
KGO1 121723Z 15011KT 00/M09 A3023 RMK A01 T00031090  RH  050%=      5-min Rain = 0
KGO1 121724Z 16012KT 00/M09 A3023 RMK A01 T00041090  RH  049%=      5-min Rain = 0
KGO1 121725Z 15012KT 00/M09 A3023 RMK A01 T00031091  RH  049%=      5-min Rain = 0
KGO1 121726Z 17012KT 00/M09 A3023 RMK A01 T00041090  RH  049%=      5-min Rain = 0
KGO1 121727Z 18011KT 01/M09 A3023 RMK A01 T00061089  RH  049%=      5-min Rain = 0
KGO1 121728Z 17011KT 01/M09 A3023 RMK A01 T00051091  RH  048%=      5-min Rain = 0
KGO1 121729Z 17011KT 01/M09 A3023 RMK A01 T00061091  RH  048%=      5-min Rain = 0
KGO1 121730Z 17013KT 01/M09 A3023 RMK A01 T00051091  RH  049%=      5-min Rain = 0
KGO1 121731Z 16013KT 01/M09 A3023 RMK A01 T00071090  RH  048%=      5-min Rain = 0
KGO1 121732Z 17010KT 01/M09 A3023 RMK A01 T00061093  RH  048%=      5-min Rain = 0
KGO1 121733Z 16009KT 00/M09 A3022 RMK A01 T00031093  RH  048%=      5-min Rain = 0
KGO1 121734Z 17011KT 01/M09 A3022 RMK A01 T00071089  RH  049%=      5-min Rain = 0
KGO1 121735Z 17012KT 01/M09 A3022 RMK A01 T00091089  RH  048%=      5-min Rain = 0
KGO1 121736Z 18011KT 01/M09 A3022 RMK A01 T00101091  RH  047%=      5-min Rain = 0
KGO1 121737Z 17008KT 01/M09 A3022 RMK A01 T00081092  RH  047%=      5-min Rain = 0
KGO1 121738Z 16011KT 01/M09 A3022 RMK A01 T00111088  RH  048%=      5-min Rain = 0
KGO1 121739Z 17010KT 01/M09 A3022 RMK A01 T00121090  RH  047%=      5-min Rain = 0
KGO1 121740Z 15008KT 01/M09 A3022 RMK A01 T00111091  RH  047%=      5-min Rain = 0
KGO1 121741Z 16012KT 01/M09 A3022 RMK A01 T00121091  RH  046%=      5-min Rain = 0
KGO1 121742Z 17013KT 01/M09 A3022 RMK A01 T00131091  RH  046%=      5-min Rain = 0
KGO1 121743Z 17010KT 01/M09 A3022 RMK A01 T00111093  RH  046%=      5-min Rain = 0
KGO1 121744Z 17012KT 01/M09 A3022 RMK A01 T00101092  RH  046%=      5-min Rain = 0
KGO1 121745Z 16009KT 01/M09 A3021 RMK A01 T00121090  RH  046%=      5-min Rain = 0
KGO1 121746Z 17010KT 01/M09 A3021 RMK A01 T00141090  RH  046%=      5-min Rain = 0
KGO1 121747Z 18010KT 02/M09 A3021 RMK A01 T00151089  RH  046%=      5-min Rain = 0
KGO1 121748Z 17012KT 02/M09 A3021 RMK A01 T00151091  RH  045%=      5-min Rain = 0
KGO1 121749Z 17012KT 02/M09 A3021 RMK A01 T00161089  RH  046%=      5-min Rain = 0
KGO1 121750Z 15014KT 02/M09 A302 RMK A01 T00171090  RH  045%=      5-min Rain = 0
KGO1 121751Z 16013KT 02/M09 A302 RMK A01 T00161090  RH  045%=      5-min Rain = 0
KGO1 121752Z 16012KT 02/M09 A302 RMK A01 T00181090  RH  045%=      5-min Rain = 0
KGO1 121753Z 17012KT 02/M09 A302 RMK A01 T00151092  RH  045%=      5-min Rain = 0
KGO1 121754Z 16011KT 02/M09 A302 RMK A01 T00151091  RH  045%=      5-min Rain = 0
KGO1 121755Z 16011KT 02/M09 A302 RMK A01 T00181088  RH  045%=      5-min Rain = 0
KGO1 121756Z 16009KT 02/M09 A3021 RMK A01 T00201088  RH  045%=      5-min Rain = 0
KGO1 121757Z 17011KT 02/M09 A302 RMK A01 T00201090  RH  044%=      5-min Rain = 0
KGO1 121758Z 17010KT 02/M09 A302 RMK A01 T00191091  RH  044%=      5-min Rain = 0
KGO1 121759Z 16010KT 02/M09 A302 RMK A01 T00201090  RH  044%=      5-min Rain = 0
KGO1 121800Z 15010KT 02/M09 A302 RMK A01 T00191091  RH  044%=      5-min Rain = 0
KGO1 121801Z 15010KT 02/M09 A302 RMK A01 T00171092  RH  044%=      5-min Rain = 0
KGO1 121802Z 17012KT 02/M09 A302 RMK A01 T00201089  RH  044%=      5-min Rain = 0
KGO1 121803Z 18012KT 02/M09 A302 RMK A01 T00241087  RH  044%=      5-min Rain = 0
KGO1 121804Z 16012KT 03/M09 A302 RMK A01 T00261088  RH  043%=      5-min Rain = 0
KGO1 121805Z 16010KT 03/M09 A302 RMK A01 T00261089  RH  042%=      5-min Rain = 0
KGO1 121806Z 15011KT 03/M09 A302 RMK A01 T00251091  RH  042%=      5-min Rain = 0
KGO1 121807Z 17011KT 02/M09 A302 RMK A01 T00231092  RH  042%=      5-min Rain = 0
KGO1 121808Z 18012KT 02/M09 A302 RMK A01 T00241092  RH  042%=      5-min Rain = 0
KGO1 121809Z 18012KT 02/M09 A302 RMK A01 T00241092  RH  042%=      5-min Rain = 0
KGO1 121810Z 17010KT 03/M09 A302 RMK A01 T00251092  RH  042%=      5-min Rain = 0
KGO1 121811Z 16010KT 03/M09 A302 RMK A01 T00261091  RH  042%=      5-min Rain = 0
KGO1 121812Z 17012KT 03/M09 A302 RMK A01 T00291090  RH  041%=      5-min Rain = 0
KGO1 121813Z 17009KT 03/M09 A302 RMK A01 T00311088  RH  041%=      5-min Rain = 0
KGO1 121814Z 17011KT 03/M09 A3019 RMK A01 T00341089  RH  040%=      5-min Rain = 0
KGO1 121815Z 16011KT 03/M09 A3019 RMK A01 T00321092  RH  040%=      5-min Rain = 0
KGO1 121816Z 16010KT 03/M09 A3019 RMK A01 T00301093  RH  040%=      5-min Rain = 0
KGO1 121817Z 17011KT 03/M09 A3019 RMK A01 T00291092  RH  041%=      5-min Rain = 0
KGO1 121818Z 17010KT 03/M09 A3019 RMK A01 T00291091  RH  041%=      5-min Rain = 0
KGO1 121819Z 17010KT 03/M09 A3019 RMK A01 T00301091  RH  040%=      5-min Rain = 0
KGO1 121820Z 17010KT 03/M09 A3019 RMK A01 T00301091  RH  041%=      5-min Rain = 0
KGO1 121821Z 16011KT 03/M09 A3019 RMK A01 T00311090  RH  041%=      5-min Rain = 0
KGO1 121822Z 14011KT 03/M09 A3019 RMK A01 T00321090  RH  040%=      5-min Rain = 0
KGO1 121823Z 15011KT 03/M09 A3019 RMK A01 T00321091  RH  040%=      5-min Rain = 0
KGO1 121824Z 15013KT 03/M09 A3018 RMK A01 T00311092  RH  040%=      5-min Rain = 0
KGO1 121825Z 16012KT 03/M09 A3018 RMK A01 T00301092  RH  040%=      5-min Rain = 0
KGO1 121826Z 16011KT 03/M09 A3018 RMK A01 T00281093  RH  040%=      5-min Rain = 0
KGO1 121827Z 16010KT 03/M09 A3018 RMK A01 T00271093  RH  041%=      5-min Rain = 0
KGO1 121828Z 15012KT 03/M09 A3018 RMK A01 T00271091  RH  041%=      5-min Rain = 0
KGO1 121829Z 16010KT 03/M09 A3018 RMK A01 T00291092  RH  041%=      5-min Rain = 0
KGO1 121830Z 16012KT 03/M09 A3018 RMK A01 T00281093  RH  041%=      5-min Rain = 0
KGO1 121831Z 16013KT 03/M09 A3018 RMK A01 T00291091  RH  041%=      5-min Rain = 0
KGO1 121832Z 16011KT 03/M09 A3018 RMK A01 T00311091  RH  040%=      5-min Rain = 0
KGO1 121833Z 16010KT 03/M09 A3017 RMK A01 T00321091  RH  040%=      5-min Rain = 0
KGO1 121834Z 15012KT 03/M09 A3017 RMK A01 T00331090  RH  040%=      5-min Rain = 0
KGO1 121835Z 16014KT 03/M09 A3017 RMK A01 T00341090  RH  040%=      5-min Rain = 0
KGO1 121836Z 16011KT 03/M09 A3017 RMK A01 T00321093  RH  039%=      5-min Rain = 0
KGO1 121837Z 15011KT 03/M09 A3017 RMK A01 T00301093  RH  040%=      5-min Rain = 0
KGO1 121838Z 15010KT 03/M09 A3017 RMK A01 T00311091  RH  040%=      5-min Rain = 0
KGO1 121839Z 14010KT 03/M09 A3017 RMK A01 T00321090  RH  040%=      5-min Rain = 0
KGO1 121840Z 14011KT 03/M09 A3017 RMK A01 T00331090  RH  040%=      5-min Rain = 0
KGO1 121841Z 14013KT 03/M09 A3017 RMK A01 T00321090  RH  040%=      5-min Rain = 0
KGO1 121842Z 15012KT 04/M09 A3017 RMK A01 T00351088  RH  040%=      5-min Rain = 0
KGO1 121843Z 15013KT 04/M09 A3017 RMK A01 T00361090  RH  039%=      5-min Rain = 0
KGO1 121844Z 15010KT 03/M09 A3017 RMK A01 T00311094  RH  039%=      5-min Rain = 0
KGO1 121845Z 16012KT 03/M09 A3017 RMK A01 T00291093  RH  040%=      5-min Rain = 0
KGO1 121846Z 16010KT 03/M09 A3017 RMK A01 T00291093  RH  040%=      5-min Rain = 0
KGO1 121847Z 15013KT 03/M09 A3017 RMK A01 T00301092  RH  040%=      5-min Rain = 0
KGO1 121848Z 15011KT 03/M09 A3017 RMK A01 T00311090  RH  041%=      5-min Rain = 0
KGO1 121849Z 15011KT 03/M09 A3017 RMK A01 T00331090  RH  040%=      5-min Rain = 0
KGO1 121850Z 14011KT 03/M09 A3017 RMK A01 T00331091  RH  040%=      5-min Rain = 0
KGO1 121851Z 15013KT 03/M09 A3017 RMK A01 T00321091  RH  040%=      5-min Rain = 0
KGO1 121852Z 16013KT 03/M09 A3016 RMK A01 T00321092  RH  040%=      5-min Rain = 0
KGO1 121853Z 15009KT 03/M09 A3016 RMK A01 T00301094  RH  040%=      5-min Rain = 0
KGO1 121854Z 14011KT 03/M09 A3017 RMK A01 T00281094  RH  040%=      5-min Rain = 0
KGO1 121855Z 14010KT 03/M09 A3017 RMK A01 T00281093  RH  041%=      5-min Rain = 0
KGO1 121856Z 13011KT 03/M09 A3017 RMK A01 T00271093  RH  041%=      5-min Rain = 0
KGO1 121857Z 15014KT 03/M09 A3016 RMK A01 T00281091  RH  041%=      5-min Rain = 0
KGO1 121858Z 14012KT 03/M09 A3016 RMK A01 T00311090  RH  041%=      5-min Rain = 0
KGO1 121859Z 16011KT 03/M09 A3016 RMK A01 T00331090  RH  040%=      5-min Rain = 0
KGO1 121900Z 16012KT 03/M09 A3016 RMK A01 T00331091  RH  040%=      5-min Rain = 0
KGO1 121901Z 17011KT 03/M09 A3016 RMK A01 T00331091  RH  040%=      5-min Rain = 0
KGO1 121902Z 15011KT 03/M09 A3016 RMK A01 T00341091  RH  039%=      5-min Rain = 0
KGO1 121903Z 15011KT 04/M09 A3016 RMK A01 T00371089  RH  039%=      5-min Rain = 0
KGO1 121904Z 15008KT 04/M09 A3016 RMK A01 T00361092  RH  039%=      5-min Rain = 0
KGO1 121905Z 15009KT 04/M09 A3016 RMK A01 T00351090  RH  039%=      5-min Rain = 0
KGO1 121906Z 16013KT 04/M09 A3016 RMK A01 T00381088  RH  039%=      5-min Rain = 0
KGO1 121907Z 15011KT 04/M09 A3016 RMK A01 T00401089  RH  038%=      5-min Rain = 0
KGO1 121908Z 16011KT 04/M09 A3016 RMK A01 T00391092  RH  038%=      5-min Rain = 0
KGO1 121909Z 14010KT 04/M09 A3016 RMK A01 T00381091  RH  038%=      5-min Rain = 0
KGO1 121910Z 13012KT 04/M09 A3016 RMK A01 T00381092  RH  038%=      5-min Rain = 0
KGO1 121911Z 13010KT 04/M09 A3016 RMK A01 T00381090  RH  039%=      5-min Rain = 0
KGO1 121912Z 13011KT 04/M09 A3016 RMK A01 T00391091  RH  038%=      5-min Rain = 0
KGO1 121913Z 14011KT 04/M09 A3016 RMK A01 T00391091  RH  038%=      5-min Rain = 0
KGO1 121914Z 15010KT 04/M09 A3016 RMK A01 T00401089  RH  038%=      5-min Rain = 0
KGO1 121915Z 14011KT 04/M09 A3016 RMK A01 T00411090  RH  038%=      5-min Rain = 0
KGO1 121916Z 15012KT 04/M09 A3016 RMK A01 T00381093  RH  038%=      5-min Rain = 0
KGO1 121917Z 14010KT 04/M09 A3015 RMK A01 T00351094  RH  038%=      5-min Rain = 0
KGO1 121918Z 14009KT 04/M09 A3015 RMK A01 T00351092  RH  039%=      5-min Rain = 0
KGO1 121919Z 14011KT 04/M09 A3015 RMK A01 T00371089  RH  039%=      5-min Rain = 0
KGO1 121920Z 15013KT 04/M09 A3015 RMK A01 T00421088  RH  038%=      5-min Rain = 0
KGO1 121921Z 16013KT 04/M09 A3015 RMK A01 T00421090  RH  037%=      5-min Rain = 0
KGO1 121922Z 15010KT 04/M09 A3015 RMK A01 T00421091  RH  037%=      5-min Rain = 0
KGO1 121923Z 15010KT 04/M09 A3015 RMK A01 T00411092  RH  037%=      5-min Rain = 0
KGO1 121924Z 14010KT 04/M09 A3015 RMK A01 T00401092  RH  037%=      5-min Rain = 0
KGO1 121925Z 14012KT 04/M09 A3015 RMK A01 T00391093  RH  037%=      5-min Rain = 0
KGO1 121926Z 16013KT 04/M09 A3015 RMK A01 T00381093  RH  038%=      5-min Rain = 0
KGO1 121927Z 15009KT 04/M09 A3015 RMK A01 T00381093  RH  038%=      5-min Rain = 0
KGO1 121928Z 15009KT 04/M09 A3015 RMK A01 T00381092  RH  038%=      5-min Rain = 0
KGO1 121929Z 16010KT 04/M09 A3015 RMK A01 T00421089  RH  038%=      5-min Rain = 0
KGO1 121930Z 17010KT 05/M09 A3015 RMK A01 T00451089  RH  037%=      5-min Rain = 0
KGO1 121931Z 15014KT 05/M09 A3015 RMK A01 T00461090  RH  037%=      5-min Rain = 0
KGO1 121932Z 14012KT 04/M09 A3015 RMK A01 T00441093  RH  036%=      5-min Rain = 0
KGO1 121933Z 16013KT 04/M09 A3015 RMK A01 T00411094  RH  037%=      5-min Rain = 0
KGO1 121934Z 15010KT 04/M09 A3015 RMK A01 T00401094  RH  037%=      5-min Rain = 0
KGO1 121935Z 15012G17KT 04/M10 A3015 RMK A01 T00381095  RH  037%=      5-min Rain = 0
KGO1 121941Z 15010KT 04/M09 A3015 RMK A01 T00421093  RH  037%=      5-min Rain = 0
KGO1 121942Z 14014KT 04/M09 A3015 RMK A01 T00431093  RH  036%=      5-min Rain = 0
KGO1 121943Z 15012KT 04/M09 A3015 RMK A01 T00431094  RH  036%=      5-min Rain = 0
KGO1 121944Z 15010KT 04/M09 A3015 RMK A01 T00421094  RH  036%=      5-min Rain = 0
KGO1 121945Z 16012KT 05/M09 A3015 RMK A01 T00461092  RH  036%=      5-min Rain = 0
KGO1 121946Z 16009KT 04/M10 A3015 RMK A01 T00441096  RH  036%=      5-min Rain = 0
KGO1 121947Z 15012KT 04/M10 A3014 RMK A01 T00401096  RH  036%=      5-min Rain = 0
KGO1 121948Z 15012KT 04/M09 A3015 RMK A01 T00441092  RH  036%=      5-min Rain = 0
KGO1 121949Z 15011KT 04/M09 A3015 RMK A01 T00441094  RH  036%=      5-min Rain = 0
KGO1 121950Z 14009KT 04/M10 A3015 RMK A01 T00441095  RH  036%=      5-min Rain = 0
KGO1 121951Z 16010KT 04/M09 A3015 RMK A01 T00441092  RH  036%=      5-min Rain = 0
KGO1 121952Z 15013KT 05/M09 A3015 RMK A01 T00471092  RH  036%=      5-min Rain = 0
KGO1 121953Z 15014KT 05/M09 A3014 RMK A01 T00461093  RH  036%=      5-min Rain = 0
KGO1 121954Z 15014KT 05/M09 A3014 RMK A01 T00461094  RH  036%=      5-min Rain = 0
KGO1 121955Z 14011KT 04/M10 A3015 RMK A01 T00421096  RH  036%=      5-min Rain = 0
KGO1 121956Z 16011KT 04/M10 A3015 RMK A01 T00411095  RH  036%=      5-min Rain = 0
KGO1 121957Z 17009KT 04/M10 A3015 RMK A01 T00411095  RH  036%=      5-min Rain = 0
KGO1 121958Z 16011KT 04/M09 A3014 RMK A01 T00401094  RH  037%=      5-min Rain = 0
KGO1 121959Z 15013KT 04/M09 A3014 RMK A01 T00431093  RH  037%=      5-min Rain = 0
KGO1 122000Z 15010KT 04/M09 A3014 RMK A01 T00441093  RH  036%=      5-min Rain = 0
KGO1 122001Z 15011KT 05/M09 A3014 RMK A01 T00451093  RH  036%=      5-min Rain = 0
KGO1 122002Z 16012KT 05/M09 A3014 RMK A01 T00491090  RH  036%=      5-min Rain = 0
KGO1 122003Z 15013KT 05/M09 A3014 RMK A01 T00501092  RH  035%=      5-min Rain = 0
KGO1 122004Z 14012KT 05/M09 A3014 RMK A01 T00491093  RH  035%=      5-min Rain = 0
KGO1 122005Z 15008KT 05/M09 A3014 RMK A01 T00481093  RH  035%=      5-min Rain = 0
KGO1 122006Z 17011KT 05/M09 A3014 RMK A01 T00511090  RH  035%=      5-min Rain = 0
KGO1 122007Z 16011KT 05/M09 A3014 RMK A01 T00511093  RH  035%=      5-min Rain = 0
KGO1 122008Z 15011KT 05/M10 A3014 RMK A01 T00481095  RH  035%=      5-min Rain = 0
KGO1 122009Z 15010KT 05/M10 A3014 RMK A01 T00471095  RH  035%=      5-min Rain = 0
KGO1 122010Z 15012KT 05/M09 A3014 RMK A01 T00461094  RH  035%=      5-min Rain = 0
KGO1 122011Z 15012KT 05/M09 A3014 RMK A01 T00471093  RH  035%=      5-min Rain = 0
KGO1 122012Z 14011KT 05/M09 A3014 RMK A01 T00471093  RH  035%=      5-min Rain = 0
KGO1 122013Z 14014KT 05/M09 A3014 RMK A01 T00461094  RH  035%=      5-min Rain = 0
KGO1 122014Z 16012KT 05/M09 A3014 RMK A01 T00461094  RH  035%=      5-min Rain = 0
KGO1 122015Z 15012KT 05/M09 A3014 RMK A01 T00471094  RH  035%=      5-min Rain = 0
KGO1 122016Z 15010KT 05/M10 A3014 RMK A01 T00461095  RH  035%=      5-min Rain = 0
KGO1 122017Z 15013KT 05/M09 A3014 RMK A01 T00491091  RH  035%=      5-min Rain = 0
KGO1 122018Z 16014KT 05/M09 A3014 RMK A01 T00511093  RH  035%=      5-min Rain = 0
KGO1 122019Z 15011KT 05/M10 A3014 RMK A01 T00491095  RH  034%=      5-min Rain = 0
KGO1 122020Z 15011KT 05/M10 A3014 RMK A01 T00481095  RH  035%=      5-min Rain = 0
KGO1 122021Z 16014KT 05/M09 A3014 RMK A01 T00491094  RH  035%=      5-min Rain = 0
KGO1 122022Z 16012KT 05/M10 A3014 RMK A01 T00501095  RH  034%=      5-min Rain = 0
KGO1 122023Z 16009KT 05/M10 A3014 RMK A01 T00481096  RH  034%=      5-min Rain = 0
KGO1 122024Z 16011KT 05/M10 A3014 RMK A01 T00471095  RH  035%=      5-min Rain = 0
KGO1 122025Z 15011KT 05/M10 A3014 RMK A01 T00471096  RH  035%=      5-min Rain = 0
KGO1 122026Z 14011KT 05/M10 A3014 RMK A01 T00471095  RH  035%=      5-min Rain = 0
KGO1 122027Z 14012KT 05/M10 A3013 RMK A01 T00471095  RH  035%=      5-min Rain = 0
KGO1 122028Z 14012KT 05/M10 A3013 RMK A01 T00471096  RH  035%=      5-min Rain = 0
KGO1 122029Z 15015KT 05/M09 A3013 RMK A01 T00491093  RH  035%=      5-min Rain = 0
KGO1 122030Z 16014KT 05/M10 A3013 RMK A01 T00511095  RH  034%=      5-min Rain = 0
KGO1 122031Z 15014KT 05/M10 A3013 RMK A01 T00491096  RH  034%=      5-min Rain = 0
KGO1 122032Z 15015KT 05/M10 A3013 RMK A01 T00491096  RH  034%=      5-min Rain = 0
KGO1 122033Z 16016KT 05/M10 A3013 RMK A01 T00491096  RH  034%=      5-min Rain = 0
KGO1 122034Z 16013KT 05/M10 A3013 RMK A01 T00491096  RH  034%=      5-min Rain = 0
KGO1 122035Z 16016KT 05/M09 A3013 RMK A01 T00521094  RH  034%=      5-min Rain = 0
KGO1 122036Z 15014KT 05/M10 A3013 RMK A01 T00501096  RH  034%=      5-min Rain = 0
KGO1 122037Z 15012KT 05/M10 A3013 RMK A01 T00511095  RH  034%=      5-min Rain = 0
KGO1 122038Z 15013KT 05/M10 A3013 RMK A01 T00521095  RH  034%=      5-min Rain = 0
KGO1 122039Z 15013G19KT 05/M10 A3013 RMK A01 T00531095  RH  033%=      5-min Rain = 0
KGO1 122040Z 16014KT 05/M10 A3013 RMK A01 T00521096  RH  033%=      5-min Rain = 0
KGO1 122041Z 16016KT 05/M10 A3013 RMK A01 T00521096  RH  034%=      5-min Rain = 0
KGO1 122042Z 16012KT 05/M10 A3013 RMK A01 T00491098  RH  034%=      5-min Rain = 0
KGO1 122043Z 16014KT 05/M10 A3013 RMK A01 T00511095  RH  034%=      5-min Rain = 0
KGO1 122044Z 15012KT 05/M10 A3013 RMK A01 T00531095  RH  033%=      5-min Rain = 0
KGO1 122045Z 14010G17KT 05/M10 A3013 RMK A01 T00511098  RH  033%=      5-min Rain = 0
KGO1 122046Z 16016KT 05/M10 A3013 RMK A01 T00511096  RH  034%=      5-min Rain = 0
KGO1 122047Z 16013KT 05/M10 A3013 RMK A01 T00531096  RH  033%=      5-min Rain = 0
KGO1 122048Z 16010KT 05/M10 A3013 RMK A01 T00531095  RH  033%=      5-min Rain = 0
KGO1 122049Z 16013KT 06/M09 A3013 RMK A01 T00571094  RH  033%=      5-min Rain = 0
KGO1 122050Z 16016KT 06/M10 A3013 RMK A01 T00551097  RH  033%=      5-min Rain = 0
KGO1 122051Z 15014KT 05/M10 A3013 RMK A01 T00531098  RH  033%=      5-min Rain = 0
KGO1 122052Z 15014KT 05/M10 A3013 RMK A01 T00511098  RH  033%=      5-min Rain = 0
KGO1 122053Z 16015KT 05/M10 A3013 RMK A01 T00521097  RH  033%=      5-min Rain = 0
KGO1 122054Z 15014KT 05/M10 A3013 RMK A01 T00531096  RH  033%=      5-min Rain = 0
KGO1 122055Z 14014KT 05/M10 A3013 RMK A01 T00531097  RH  033%=      5-min Rain = 0
KGO1 122056Z 14014KT 05/M10 A3013 RMK A01 T00541097  RH  033%=      5-min Rain = 0
KGO1 122057Z 15015KT 06/M10 A3013 RMK A01 T00551096  RH  033%=      5-min Rain = 0
KGO1 122058Z 17015KT 06/M10 A3013 RMK A01 T00561097  RH  032%=      5-min Rain = 0
KGO1 122059Z 15013KT 06/M10 A3013 RMK A01 T00551098  RH  032%=      5-min Rain = 0
KGO1 122100Z 15012G18KT 05/M10 A3013 RMK A01 T00531099  RH  032%=      5-min Rain = 0
KGO1 122101Z 15017KT 05/M10 A3013 RMK A01 T00531098  RH  033%=      5-min Rain = 0
KGO1 122102Z 16016KT 05/M10 A3013 RMK A01 T00531099  RH  033%=      5-min Rain = 0
KGO1 122103Z 16013KT 05/M10 A3013 RMK A01 T00511100  RH  033%=      5-min Rain = 0
KGO1 122104Z 16014KT 05/M10 A3013 RMK A01 T00531097  RH  033%=      5-min Rain = 0
KGO1 122105Z 15016KT 05/M10 A3013 RMK A01 T00541098  RH  033%=      5-min Rain = 0
KGO1 122106Z 15016KT 06/M10 A3013 RMK A01 T00561098  RH  032%=      5-min Rain = 0
KGO1 122107Z 15014KT 06/M10 A3013 RMK A01 T00551099  RH  032%=      5-min Rain = 0
KGO1 122108Z 16013KT 06/M10 A3013 RMK A01 T00561098  RH  032%=      5-min Rain = 0
KGO1 122109Z 16013KT 06/M10 A3013 RMK A01 T00561099  RH  032%=      5-min Rain = 0
KGO1 122110Z 16014KT 06/M10 A3013 RMK A01 T00561099  RH  032%=      5-min Rain = 0
KGO1 122111Z 16016KT 06/M10 A3013 RMK A01 T00561100  RH  032%=      5-min Rain = 0
KGO1 122112Z 17013KT 06/M10 A3013 RMK A01 T00551100  RH  032%=      5-min Rain = 0
KGO1 122113Z 15011KT 06/M10 A3013 RMK A01 T00551100  RH  032%=      5-min Rain = 0
KGO1 122114Z 15012KT 06/M10 A3013 RMK A01 T00571100  RH  032%=      5-min Rain = 0
KGO1 122115Z 13014KT 06/M10 A3013 RMK A01 T00561101  RH  031%=      5-min Rain = 0
KGO1 122116Z 14012KT 05/M10 A3013 RMK A01 T00541102  RH  031%=      5-min Rain = 0
KGO1 122117Z 14016KT 06/M10 A3013 RMK A01 T00551100  RH  032%=      5-min Rain = 0
KGO1 122118Z 15014KT 06/M10 A3013 RMK A01 T00551102  RH  031%=      5-min Rain = 0
KGO1 122119Z 14013G18KT 06/M10 A3013 RMK A01 T00561100  RH  032%=      5-min Rain = 0
KGO1 122120Z 14015KT 06/M10 A3013 RMK A01 T00581101  RH  031%=      5-min Rain = 0
KGO1 122121Z 14014KT 06/M10 A3013 RMK A01 T00551103  RH  031%=      5-min Rain = 0
KGO1 122122Z 14016KT 06/M10 A3013 RMK A01 T00551102  RH  031%=      5-min Rain = 0
KGO1 122123Z 14017KT 05/M10 A3013 RMK A01 T00541102  RH  031%=      5-min Rain = 0
KGO1 122124Z 14014KT 05/M10 A3013 RMK A01 T00531103  RH  031%=      5-min Rain = 0
KGO1 122125Z 13014KT 05/M10 A3013 RMK A01 T00511104  RH  032%=      5-min Rain = 0
KGO1 122126Z 14016KT 05/M10 A3013 RMK A01 T00521103  RH  032%=      5-min Rain = 0
KGO1 122127Z 15016KT 05/M10 A3013 RMK A01 T00541101  RH  032%=      5-min Rain = 0
KGO1 122128Z 15015KT 05/M10 A3013 RMK A01 T00531104  RH  031%=      5-min Rain = 0
KGO1 122129Z 15012KT 05/M10 A3014 RMK A01 T00511104  RH  032%=      5-min Rain = 0
KGO1 122130Z 14014KT 05/M10 A3014 RMK A01 T00521102  RH  032%=      5-min Rain = 0
KGO1 122131Z 14012KT 05/M10 A3014 RMK A01 T00531103  RH  032%=      5-min Rain = 0
KGO1 122132Z 14014KT 05/M10 A3014 RMK A01 T00531103  RH  031%=      5-min Rain = 0
KGO1 122133Z 14011KT 05/M10 A3014 RMK A01 T00521104  RH  031%=      5-min Rain = 0
KGO1 122134Z 13014KT 06/M10 A3014 RMK A01 T00551101  RH  031%=      5-min Rain = 0
KGO1 122135Z 14014KT 06/M10 A3014 RMK A01 T00561103  RH  031%=      5-min Rain = 0
KGO1 122136Z 14011KT 05/M11 A3014 RMK A01 T00541105  RH  031%=      5-min Rain = 0
KGO1 122137Z 14013KT 05/M10 A3014 RMK A01 T00531104  RH  031%=      5-min Rain = 0
KGO1 122138Z 14013KT 05/M10 A3014 RMK A01 T00531104  RH  031%=      5-min Rain = 0
KGO1 122139Z 14013KT 05/M11 A3014 RMK A01 T00531105  RH  031%=      5-min Rain = 0
KGO1 122140Z 14014KT 05/M11 A3014 RMK A01 T00521105  RH  031%=      5-min Rain = 0
KGO1 122141Z 13015KT 05/M10 A3014 RMK A01 T00521104  RH  031%=      5-min Rain = 0
KGO1 122142Z 13013KT 05/M11 A3015 RMK A01 T00521105  RH  031%=      5-min Rain = 0
KGO1 122143Z 13013KT 05/M11 A3015 RMK A01 T00521105  RH  031%=      5-min Rain = 0
KGO1 122144Z 13015KT 05/M10 A3015 RMK A01 T00531104  RH  031%=      5-min Rain = 0
KGO1 122145Z 13016KT 05/M11 A3015 RMK A01 T00531105  RH  031%=      5-min Rain = 0
KGO1 122146Z 14013KT 05/M11 A3015 RMK A01 T00521105  RH  031%=      5-min Rain = 0
KGO1 122147Z 14012KT 05/M11 A3015 RMK A01 T00521105  RH  031%=      5-min Rain = 0
KGO1 122148Z 13014KT 05/M10 A3015 RMK A01 T00531104  RH  031%=      5-min Rain = 0
KGO1 122149Z 14011KT 06/M10 A3015 RMK A01 T00551103  RH  031%=      5-min Rain = 0
KGO1 122150Z 14011KT 06/M10 A3015 RMK A01 T00561102  RH  031%=      5-min Rain = 0
KGO1 122151Z 15012KT 06/M10 A3015 RMK A01 T00581102  RH  031%=      5-min Rain = 0
KGO1 122152Z 13012KT 06/M10 A3015 RMK A01 T00581103  RH  030%=      5-min Rain = 0
KGO1 122153Z 13012KT 06/M10 A3015 RMK A01 T00571104  RH  030%=      5-min Rain = 0
KGO1 122154Z 12014KT 06/M10 A3015 RMK A01 T00571103  RH  031%=      5-min Rain = 0
KGO1 122155Z 13014KT 06/M10 A3015 RMK A01 T00561104  RH  030%=      5-min Rain = 0
KGO1 122156Z 15014KT 06/M11 A3015 RMK A01 T00551105  RH  031%=      5-min Rain = 0
KGO1 122157Z 13013KT 06/M10 A3015 RMK A01 T00551104  RH  031%=      5-min Rain = 0
KGO1 122158Z 14012KT 06/M10 A3015 RMK A01 T00561103  RH  031%=      5-min Rain = 0
KGO1 122159Z 14012KT 06/M10 A3015 RMK A01 T00571103  RH  030%=      5-min Rain = 0
KGO1 122200Z 13010KT 06/M10 A3015 RMK A01 T00571104  RH  030%=      5-min Rain = 0
KGO1 122201Z 14014KT 06/M10 A3015 RMK A01 T00581103  RH  030%=      5-min Rain = 0
KGO1 122202Z 14013KT 06/M11 A3015 RMK A01 T00581105  RH  030%=      5-min Rain = 0
KGO1 122203Z 14015KT 06/M11 A3015 RMK A01 T00571105  RH  030%=      5-min Rain = 0
KGO1 122204Z 14015KT 06/M11 A3015 RMK A01 T00571105  RH  030%=      5-min Rain = 0
KGO1 122205Z 15016KT 06/M11 A3015 RMK A01 T00571105  RH  030%=      5-min Rain = 0
KGO1 122206Z 14014KT 06/M11 A3015 RMK A01 T00561107  RH  030%=      5-min Rain = 0
KGO1 122207Z 14013KT 06/M11 A3015 RMK A01 T00561107  RH  030%=      5-min Rain = 0
KGO1 122208Z 14012KT 06/M11 A3015 RMK A01 T00561107  RH  030%=      5-min Rain = 0
KGO1 122209Z 13012G17KT 06/M11 A3015 RMK A01 T00561106  RH  030%=      5-min Rain = 0
KGO1 122210Z 13014KT 06/M11 A3015 RMK A01 T00581106  RH  030%=      5-min Rain = 0
KGO1 122211Z 14012KT 06/M11 A3015 RMK A01 T00561109  RH  029%=      5-min Rain = 0
KGO1 122212Z 13011KT 06/M11 A3016 RMK A01 T00561107  RH  030%=      5-min Rain = 0
KGO1 122213Z 13013KT 06/M11 A3016 RMK A01 T00571107  RH  030%=      5-min Rain = 0
KGO1 122214Z 13012KT 06/M11 A3016 RMK A01 T00581107  RH  029%=      5-min Rain = 0
KGO1 122215Z 13014KT 06/M11 A3016 RMK A01 T00581107  RH  029%=      5-min Rain = 0
KGO1 122216Z 14012KT 06/M11 A3016 RMK A01 T00581108  RH  029%=      5-min Rain = 0
KGO1 122217Z 14012KT 06/M11 A3016 RMK A01 T00581108  RH  029%=      5-min Rain = 0
KGO1 122218Z 13014KT 06/M11 A3016 RMK A01 T00581108  RH  029%=      5-min Rain = 0
KGO1 122219Z 14014KT 06/M11 A3016 RMK A01 T00571109  RH  029%=      5-min Rain = 0
KGO1 122220Z 14014KT 06/M11 A3016 RMK A01 T00571108  RH  029%=      5-min Rain = 0
KGO1 122221Z 14015KT 06/M11 A3016 RMK A01 T00581107  RH  029%=      5-min Rain = 0
KGO1 122222Z 14014KT 06/M11 A3016 RMK A01 T00581109  RH  029%=      5-min Rain = 0
KGO1 122223Z 13015KT 06/M11 A3016 RMK A01 T00561110  RH  029%=      5-min Rain = 0
KGO1 122224Z 13015KT 06/M11 A3016 RMK A01 T00551111  RH  029%=      5-min Rain = 0
KGO1 122225Z 13015KT 06/M11 A3016 RMK A01 T00551110  RH  029%=      5-min Rain = 0
KGO1 122226Z 13015KT 06/M11 A3016 RMK A01 T00551110  RH  029%=      5-min Rain = 0
KGO1 122227Z 13013KT 06/M11 A3016 RMK A01 T00551110  RH  029%=      5-min Rain = 0
KGO1 122228Z 13015KT 05/M11 A3016 RMK A01 T00541111  RH  029%=      5-min Rain = 0
KGO1 122229Z 13014KT 05/M11 A3016 RMK A01 T00541111  RH  029%=      5-min Rain = 0
KGO1 122230Z 13014KT 05/M11 A3017 RMK A01 T00531112  RH  029%=      5-min Rain = 0
KGO1 122231Z 13014KT 05/M11 A3017 RMK A01 T00541111  RH  029%=      5-min Rain = 0
KGO1 122232Z 13012KT 05/M11 A3017 RMK A01 T00531112  RH  029%=      5-min Rain = 0
KGO1 122233Z 12012KT 05/M11 A3017 RMK A01 T00531112  RH  029%=      5-min Rain = 0
KGO1 122234Z 13012KT 05/M11 A3017 RMK A01 T00521112  RH  029%=      5-min Rain = 0
KGO1 122235Z 13011KT 05/M11 A3017 RMK A01 T00531112  RH  029%=      5-min Rain = 0
KGO1 122236Z 13013KT 05/M11 A3017 RMK A01 T00541111  RH  029%=      5-min Rain = 0
KGO1 122237Z 14010KT 05/M11 A3017 RMK A01 T00541112  RH  029%=      5-min Rain = 0
KGO1 122238Z 13010KT 05/M11 A3017 RMK A01 T00541112  RH  029%=      5-min Rain = 0
KGO1 122239Z 13010KT 05/M11 A3017 RMK A01 T00531113  RH  029%=      5-min Rain = 0
KGO1 122240Z 12014KT 05/M11 A3017 RMK A01 T00531113  RH  029%=      5-min Rain = 0
KGO1 122241Z 13012KT 05/M11 A3017 RMK A01 T00521114  RH  029%=      5-min Rain = 0
KGO1 122242Z 14012KT 05/M11 A3017 RMK A01 T00501114  RH  029%=      5-min Rain = 0
KGO1 122243Z 13013KT 05/M11 A3017 RMK A01 T00501114  RH  029%=      5-min Rain = 0
KGO1 122244Z 13012KT 05/M11 A3017 RMK A01 T00511113  RH  029%=      5-min Rain = 0
KGO1 122245Z 14012KT 05/M11 A3017 RMK A01 T00511114  RH  029%=      5-min Rain = 0
KGO1 122246Z 13010KT 05/M11 A3017 RMK A01 T00511113  RH  029%=      5-min Rain = 0
KGO1 122247Z 14012KT 05/M11 A3017 RMK A01 T00511113  RH  029%=      5-min Rain = 0
KGO1 122248Z 13014KT 05/M11 A3017 RMK A01 T00511114  RH  029%=      5-min Rain = 0
KGO1 122249Z 13012KT 05/M12 A3017 RMK A01 T00501115  RH  029%=      5-min Rain = 0
KGO1 122250Z 12012KT 05/M11 A3017 RMK A01 T00501114  RH  029%=      5-min Rain = 0
KGO1 122251Z 14015KT 05/M11 A3017 RMK A01 T00511113  RH  029%=      5-min Rain = 0
KGO1 122252Z 14013KT 05/M11 A3017 RMK A01 T00501114  RH  029%=      5-min Rain = 0
KGO1 122253Z 14012KT 05/M12 A3017 RMK A01 T00501115  RH  029%=      5-min Rain = 0
KGO1 122254Z 14014KT 05/M12 A3017 RMK A01 T00491115  RH  029%=      5-min Rain = 0
KGO1 122255Z 14012KT 05/M12 A3017 RMK A01 T00481115  RH  029%=      5-min Rain = 0
KGO1 122256Z 13011KT 05/M12 A3017 RMK A01 T00481115  RH  030%=      5-min Rain = 0
KGO1 122257Z 12015KT 05/M11 A3017 RMK A01 T00481114  RH  030%=      5-min Rain = 0
KGO1 122258Z 12013KT 05/M12 A3017 RMK A01 T00471115  RH  030%=      5-min Rain = 0
KGO1 122259Z 13014KT 05/M12 A3017 RMK A01 T00471115  RH  030%=      5-min Rain = 0
KGO1 122300Z 14012KT 05/M12 A3017 RMK A01 T00461115  RH  030%=      5-min Rain = 0
KGO1 122301Z 13012KT 05/M12 A3017 RMK A01 T00461115  RH  030%=      5-min Rain = 0
KGO1 122302Z 14012KT 05/M12 A3017 RMK A01 T00471115  RH  030%=      5-min Rain = 0
KGO1 122303Z 14013KT 05/M12 A3017 RMK A01 T00461115  RH  030%=      5-min Rain = 0
KGO1 122304Z 14013KT 05/M12 A3017 RMK A01 T00461115  RH  030%=      5-min Rain = 0
KGO1 122305Z 15013KT 05/M12 A3017 RMK A01 T00461115  RH  030%=      5-min Rain = 0
KGO1 122306Z 15014KT 05/M12 A3017 RMK A01 T00461116  RH  030%=      5-min Rain = 0
KGO1 122307Z 14013KT 05/M12 A3017 RMK A01 T00451116  RH  030%=      5-min Rain = 0
KGO1 122308Z 14013KT 05/M12 A3018 RMK A01 T00451116  RH  030%=      5-min Rain = 0
KGO1 122309Z 13013KT 04/M12 A3018 RMK A01 T00441117  RH  030%=      5-min Rain = 0
KGO1 122310Z 13012KT 04/M12 A3018 RMK A01 T00441117  RH  030%=      5-min Rain = 0
KGO1 122311Z 13011KT 04/M12 A3018 RMK A01 T00431117  RH  030%=      5-min Rain = 0
KGO1 122312Z 13012KT 04/M12 A3018 RMK A01 T00421117  RH  030%=      5-min Rain = 0
KGO1 122313Z 14013KT 04/M12 A3018 RMK A01 T00421118  RH  030%=      5-min Rain = 0
KGO1 122314Z 14012KT 04/M12 A3018 RMK A01 T00421118  RH  030%=      5-min Rain = 0
KGO1 122315Z 14013KT 04/M12 A3018 RMK A01 T00411118  RH  030%=      5-min Rain = 0
KGO1 122316Z 14015KT 04/M12 A3018 RMK A01 T00421118  RH  030%=      5-min Rain = 0
KGO1 122317Z 13014KT 04/M12 A3018 RMK A01 T00411118  RH  030%=      5-min Rain = 0
KGO1 122318Z 12014KT 04/M12 A3018 RMK A01 T00401118  RH  031%=      5-min Rain = 0
KGO1 122319Z 13012KT 04/M12 A3018 RMK A01 T00391118  RH  031%=      5-min Rain = 0
KGO1 122320Z 14011KT 04/M12 A3018 RMK A01 T00391118  RH  031%=      5-min Rain = 0
KGO1 122321Z 14012KT 04/M12 A3018 RMK A01 T00381118  RH  031%=      5-min Rain = 0
KGO1 122322Z 14011KT 04/M12 A3018 RMK A01 T00381118  RH  031%=      5-min Rain = 0
KGO1 122323Z 14012KT 04/M12 A3018 RMK A01 T00381118  RH  031%=      5-min Rain = 0
KGO1 122324Z 14010KT 04/M12 A3018 RMK A01 T00381118  RH  031%=      5-min Rain = 0
KGO1 122325Z 13009KT 04/M12 A3018 RMK A01 T00381119  RH  031%=      5-min Rain = 0
KGO1 122326Z 13010KT 04/M12 A3019 RMK A01 T00371119  RH  031%=      5-min Rain = 0
KGO1 122327Z 13009KT 04/M12 A3019 RMK A01 T00361119  RH  031%=      5-min Rain = 0
KGO1 122328Z 13009KT 04/M12 A3019 RMK A01 T00361119  RH  031%=      5-min Rain = 0
KGO1 122329Z 13009KT 04/M12 A3019 RMK A01 T00351119  RH  031%=      5-min Rain = 0
KGO1 122330Z 13011KT 03/M12 A3019 RMK A01 T00341119  RH  031%=      5-min Rain = 0
KGO1 122331Z 13010KT 03/M12 A3019 RMK A01 T00331120  RH  032%=      5-min Rain = 0
KGO1 122332Z 13010KT 03/M12 A3019 RMK A01 T00321120  RH  032%=      5-min Rain = 0
KGO1 122333Z 13010KT 03/M12 A3019 RMK A01 T00311120  RH  032%=      5-min Rain = 0
KGO1 122334Z 13009KT 03/M12 A3019 RMK A01 T00311120  RH  032%=      5-min Rain = 0
KGO1 122335Z 13009KT 03/M12 A3019 RMK A01 T00301120  RH  032%=      5-min Rain = 0
KGO1 122336Z 13009KT 03/M12 A302 RMK A01 T00291120  RH  032%=      5-min Rain = 0
KGO1 122337Z 12008KT 03/M12 A302 RMK A01 T00281120  RH  033%=      5-min Rain = 0
KGO1 122338Z 12007KT 03/M12 A302 RMK A01 T00271121  RH  033%=      5-min Rain = 0
KGO1 122339Z 11007KT 03/M12 A302 RMK A01 T00261121  RH  033%=      5-min Rain = 0
KGO1 122340Z 10007KT 03/M12 A302 RMK A01 T00251121  RH  033%=      5-min Rain = 0
KGO1 122341Z 12008KT 02/M12 A302 RMK A01 T00241121  RH  033%=      5-min Rain = 0
KGO1 122342Z 11009KT 02/M12 A302 RMK A01 T00231121  RH  034%=      5-min Rain = 0
KGO1 122343Z 12009KT 02/M12 A302 RMK A01 T00221121  RH  034%=      5-min Rain = 0
KGO1 122344Z 12009KT 02/M12 A302 RMK A01 T00221122  RH  034%=      5-min Rain = 0
KGO1 122345Z 11009KT 02/M12 A3021 RMK A01 T00211121  RH  034%=      5-min Rain = 0
KGO1 122346Z 11008KT 02/M12 A3021 RMK A01 T00201121  RH  034%=      5-min Rain = 0
KGO1 122347Z 11008KT 02/M12 A3021 RMK A01 T00191121  RH  035%=      5-min Rain = 0
KGO1 122348Z 10008KT 02/M12 A3021 RMK A01 T00191121  RH  035%=      5-min Rain = 0
KGO1 122349Z 10008KT 02/M12 A3021 RMK A01 T00191122  RH  034%=      5-min Rain = 0
KGO1 122350Z 10009KT 02/M12 A3021 RMK A01 T00191122  RH  034%=      5-min Rain = 0
KGO1 122351Z 10009KT 02/M12 A3022 RMK A01 T00191122  RH  034%=      5-min Rain = 0
KGO1 122352Z 10008KT 02/M12 A3022 RMK A01 T00191122  RH  034%=      5-min Rain = 0
KGO1 122353Z 10007KT 02/M12 A3022 RMK A01 T00181123  RH  034%=      5-min Rain = 0
KGO1 122354Z 10007KT 02/M12 A3022 RMK A01 T00151124  RH  035%=      5-min Rain = 0
KGO1 122355Z 10007KT 01/M12 A3022 RMK A01 T00141124  RH  035%=      5-min Rain = 0
KGO1 122356Z 10007KT 01/M12 A3022 RMK A01 T00141123  RH  035%=      5-min Rain = 0
KGO1 122357Z 10006KT 01/M12 A3022 RMK A01 T00131123  RH  036%=      5-min Rain = 0
KGO1 122358Z 10006KT 01/M12 A3022 RMK A01 T00121124  RH  036%=      5-min Rain = 0
KGO1 122359Z 11006KT 01/M12 A3022 RMK A01 T00111124  RH  036%=      5-min Rain = 0
KGO1 130000Z 11006KT 01/M12 A3022 RMK A01 T00101124  RH  036%=      5-min Rain = 0
KGO1 130001Z 11007KT 01/M13 A3022 RMK A01 T00091125  RH  036%=      5-min Rain = 0
KGO1 130002Z 10007KT 01/M13 A3022 RMK A01 T00071126  RH  036%=      5-min Rain = 0
KGO1 130003Z 10007KT 01/M13 A3022 RMK A01 T00061126  RH  036%=      5-min Rain = 0
KGO1 130004Z 11007KT 00/M13 A3022 RMK A01 T00041126  RH  037%=      5-min Rain = 0
KGO1 130005Z 10007KT 00/M13 A3022 RMK A01 T00041126  RH  037%=      5-min Rain = 0
KGO1 130006Z 11008KT 00/M13 A3022 RMK A01 T00021126  RH  037%=      5-min Rain = 0
KGO1 130007Z 11007KT 00/M13 A3022 RMK A01 T00021126  RH  038%=      5-min Rain = 0
KGO1 130008Z 11008KT 00/M13 A3023 RMK A01 T00011126  RH  038%=      5-min Rain = 0
KGO1 130009Z 11008KT 00/M13 A3023 RMK A01 T00011126  RH  038%=      5-min Rain = 0
KGO1 130010Z 11008KT 00/M13 A3023 RMK A01 T00011126  RH  038%=      5-min Rain = 0
KGO1 130011Z 11009KT 00/13 A3023 RMK A01 T00-00-126  RH  038%=      5-min Rain = 0
KGO1 130012Z 11009KT M00/M13 A3023 RMK A01 T10011126  RH  038%=      5-min Rain = 0
KGO1 130013Z 11009KT M00/M13 A3023 RMK A01 T10011126  RH  038%=      5-min Rain = 0
KGO1 130014Z 11009KT M00/M13 A3023 RMK A01 T10021127  RH  038%=      5-min Rain = 0
KGO1 130015Z 11009KT M00/M13 A3023 RMK A01 T10031127  RH  039%=      5-min Rain = 0
KGO1 130016Z 11008KT M00/M13 A3023 RMK A01 T10031127  RH  039%=      5-min Rain = 0
KGO1 130017Z 11008KT M00/M13 A3023 RMK A01 T10031127  RH  039%=      5-min Rain = 0
KGO1 130018Z 11008KT M00/M13 A3023 RMK A01 T10031127  RH  039%=      5-min Rain = 0
KGO1 130019Z 11008KT M00/M13 A3023 RMK A01 T10041127  RH  039%=      5-min Rain = 0
KGO1 130020Z 11009KT M01/M13 A3024 RMK A01 T10051127  RH  039%=      5-min Rain = 0
KGO1 130021Z 11008KT M01/M13 A3024 RMK A01 T10061128  RH  039%=      5-min Rain = 0
KGO1 130022Z 11008KT M01/M13 A3024 RMK A01 T10061127  RH  039%=      5-min Rain = 0
KGO1 130023Z 11008KT M01/M13 A3024 RMK A01 T10061127  RH  039%=      5-min Rain = 0
KGO1 130024Z 11008KT M01/M13 A3024 RMK A01 T10061127  RH  040%=      5-min Rain = 0
KGO1 130025Z 11009KT M01/M13 A3024 RMK A01 T10071127  RH  040%=      5-min Rain = 0
KGO1 130026Z 11008KT M01/M13 A3024 RMK A01 T10071127  RH  040%=      5-min Rain = 0
KGO1 130027Z 11008KT M01/M13 A3024 RMK A01 T10071127  RH  040%=      5-min Rain = 0
KGO1 130028Z 11008KT M01/M13 A3024 RMK A01 T10071127  RH  040%=      5-min Rain = 0
KGO1 130029Z 11008KT M01/M13 A3024 RMK A01 T10071127  RH  040%=      5-min Rain = 0
KGO1 130030Z 10007KT M01/M13 A3024 RMK A01 T10071127  RH  040%=      5-min Rain = 0
KGO1 130031Z 11007KT M01/M13 A3024 RMK A01 T10071126  RH  040%=      5-min Rain = 0
KGO1 130032Z 11007KT M01/M13 A3024 RMK A01 T10061126  RH  040%=      5-min Rain = 0
KGO1 130033Z 11007KT M01/M13 A3024 RMK A01 T10061126  RH  040%=      5-min Rain = 0
KGO1 130034Z 11007KT M01/M13 A3025 RMK A01 T10061126  RH  040%=      5-min Rain = 0
KGO1 130035Z 11008KT M01/M13 A3025 RMK A01 T10061126  RH  040%=      5-min Rain = 0
KGO1 130036Z 11008KT M01/M13 A3025 RMK A01 T10061126  RH  040%=      5-min Rain = 0
KGO1 130037Z 11008KT M01/M13 A3025 RMK A01 T10061126  RH  040%=      5-min Rain = 0
KGO1 130038Z 11008KT M01/M13 A3025 RMK A01 T10051126  RH  040%=      5-min Rain = 0
KGO1 130039Z 11008KT M01/M13 A3025 RMK A01 T10051126  RH  040%=      5-min Rain = 0
KGO1 130040Z 11008KT M00/M13 A3026 RMK A01 T10041125  RH  040%=      5-min Rain = 0
KGO1 130041Z 11007KT M00/M13 A3026 RMK A01 T10031125  RH  039%=      5-min Rain = 0
KGO1 130042Z 10007KT M00/M13 A3026 RMK A01 T10031125  RH  039%=      5-min Rain = 0
KGO1 130043Z 09007KT M00/M13 A3026 RMK A01 T10031125  RH  039%=      5-min Rain = 0
KGO1 130044Z 08007KT M00/M13 A3026 RMK A01 T10021125  RH  039%=      5-min Rain = 0
KGO1 130045Z 08008KT M00/M12 A3026 RMK A01 T10011124  RH  039%=      5-min Rain = 0
KGO1 130046Z 08007KT 00/13 A3027 RMK A01 T00-00-125  RH  039%=      5-min Rain = 0
KGO1 130047Z 08008KT 00/13 A3027 RMK A01 T00-00-125  RH  038%=      5-min Rain = 0
KGO1 130048Z 09010KT 00/13 A3027 RMK A01 T00-00-126  RH  038%=      5-min Rain = 0
KGO1 130049Z 10009KT 00/M13 A3027 RMK A01 T00011125  RH  038%=      5-min Rain = 0
KGO1 130050Z 10010KT 00/M13 A3027 RMK A01 T00011125  RH  038%=      5-min Rain = 0
KGO1 130051Z 10010KT 00/M13 A3027 RMK A01 T00011126  RH  038%=      5-min Rain = 0
KGO1 130052Z 09008KT 00/M13 A3027 RMK A01 T00021126  RH  038%=      5-min Rain = 0
KGO1 130053Z 09008KT 00/M13 A3027 RMK A01 T00021126  RH  038%=      5-min Rain = 0
KGO1 130054Z 08007KT 00/M13 A3027 RMK A01 T00021126  RH  038%=      5-min Rain = 0
KGO1 130055Z 08008KT 00/M13 A3027 RMK A01 T00021126  RH  038%=      5-min Rain = 0
KGO1 130056Z 09008KT 00/M13 A3028 RMK A01 T00021127  RH  037%=      5-min Rain = 0
KGO1 130057Z 09009KT 00/M13 A3028 RMK A01 T00021127  RH  037%=      5-min Rain = 0
KGO1 130058Z 10010KT 00/M13 A3027 RMK A01 T00021127  RH  037%=      5-min Rain = 0
KGO1 130059Z 11010KT 00/M13 A3027 RMK A01 T00021126  RH  038%=      5-min Rain = 0
KGO1 130100Z 11010KT 00/M13 A3027 RMK A01 T00011127  RH  038%=      5-min Rain = 0
KGO1 130101Z 10010KT 00/M13 A3027 RMK A01 T00021127  RH  037%=      5-min Rain = 0
KGO1 130102Z 09010KT 00/M13 A3027 RMK A01 T00021127  RH  037%=      5-min Rain = 0
KGO1 130103Z 08008KT 00/M13 A3028 RMK A01 T00021127  RH  037%=      5-min Rain = 0
KGO1 130104Z 08009KT 00/M13 A3028 RMK A01 T00021127  RH  037%=      5-min Rain = 0
KGO1 130105Z 09008KT 00/M13 A3028 RMK A01 T00021127  RH  037%=      5-min Rain = 0
KGO1 130106Z 09009KT 00/M13 A3028 RMK A01 T00021127  RH  037%=      5-min Rain = 0
KGO1 130107Z 10010KT 00/M13 A3028 RMK A01 T00021127  RH  037%=      5-min Rain = 0
KGO1 130108Z 11010KT 00/M13 A3028 RMK A01 T00021128  RH  037%=      5-min Rain = 0
KGO1 130109Z 11011KT 00/M13 A3028 RMK A01 T00021127  RH  037%=      5-min Rain = 0
KGO1 130110Z 10009KT 00/M13 A3028 RMK A01 T00021128  RH  037%=      5-min Rain = 0
KGO1 130111Z 09009KT 00/M13 A3028 RMK A01 T00011128  RH  037%=      5-min Rain = 0
KGO1 130112Z 08008KT 00/M13 A3028 RMK A01 T00011128  RH  037%=      5-min Rain = 0
KGO1 130113Z 08008KT 00/M13 A3029 RMK A01 T00011128  RH  037%=      5-min Rain = 0
KGO1 130114Z 08008KT 00/M13 A3029 RMK A01 T00011128  RH  037%=      5-min Rain = 0
KGO1 130115Z 08008KT 00/M13 A3029 RMK A01 T00011128  RH  037%=      5-min Rain = 0
KGO1 130116Z 09009KT 00/M13 A3029 RMK A01 T00011129  RH  037%=      5-min Rain = 0
KGO1 130117Z 09008KT 00/M13 A3029 RMK A01 T00011128  RH  037%=      5-min Rain = 0
KGO1 130118Z 09008KT 00/M13 A3029 RMK A01 T00011129  RH  037%=      5-min Rain = 0
KGO1 130119Z 09008KT M00/M13 A3029 RMK A01 T10011129  RH  037%=      5-min Rain = 0
KGO1 130120Z 09008KT M00/M13 A3029 RMK A01 T10011129  RH  037%=      5-min Rain = 0
KGO1 130121Z 09007KT M00/M13 A3029 RMK A01 T10021129  RH  038%=      5-min Rain = 0
KGO1 130122Z 09008KT M00/M13 A3029 RMK A01 T10031129  RH  038%=      5-min Rain = 0
KGO1 130123Z 09008KT M00/M13 A3029 RMK A01 T10031129  RH  038%=      5-min Rain = 0
KGO1 130124Z 09008KT M00/M13 A3029 RMK A01 T10041129  RH  038%=      5-min Rain = 0
KGO1 130125Z 10008KT M01/M13 A3029 RMK A01 T10051130  RH  038%=      5-min Rain = 0
KGO1 130126Z 09007KT M01/M13 A3029 RMK A01 T10061130  RH  039%=      5-min Rain = 0
KGO1 130127Z 09007KT M01/M13 A3029 RMK A01 T10061130  RH  039%=      5-min Rain = 0
KGO1 130128Z 09007KT M01/M13 A303 RMK A01 T10081130  RH  039%=      5-min Rain = 0
KGO1 130129Z 09006KT M01/M13 A303 RMK A01 T10081129  RH  039%=      5-min Rain = 0
KGO1 130130Z 09006KT M01/M13 A3029 RMK A01 T10091130  RH  039%=      5-min Rain = 0
KGO1 130131Z 09007KT M01/M13 A3029 RMK A01 T10091130  RH  039%=      5-min Rain = 0
KGO1 130132Z 09008KT M01/M13 A3029 RMK A01 T10091129  RH  040%=      5-min Rain = 0
KGO1 130133Z 09008KT M01/M13 A3029 RMK A01 T10091129  RH  040%=      5-min Rain = 0
KGO1 130134Z 09008KT M01/M13 A303 RMK A01 T10091129  RH  040%=      5-min Rain = 0
KGO1 130135Z 08008KT M01/M13 A303 RMK A01 T10091128  RH  040%=      5-min Rain = 0
KGO1 130136Z 08008KT M01/M13 A303 RMK A01 T10081128  RH  040%=      5-min Rain = 0
KGO1 130137Z 08010KT M01/M13 A303 RMK A01 T10081129  RH  040%=      5-min Rain = 0
KGO1 130138Z 09009KT M01/M13 A3029 RMK A01 T10081129  RH  039%=      5-min Rain = 0
KGO1 130139Z 09009KT M01/M13 A3029 RMK A01 T10081129  RH  039%=      5-min Rain = 0
KGO1 130140Z 09009KT M01/M13 A3029 RMK A01 T10081129  RH  040%=      5-min Rain = 0
KGO1 130141Z 09009KT M01/M13 A3029 RMK A01 T10091129  RH  040%=      5-min Rain = 0
KGO1 130142Z 09008KT M01/M13 A3029 RMK A01 T10091129  RH  040%=      5-min Rain = 0
KGO1 130143Z 09009KT M01/M13 A3029 RMK A01 T10101129  RH  040%=      5-min Rain = 0
KGO1 130144Z 09008KT M01/M13 A303 RMK A01 T10101129  RH  040%=      5-min Rain = 0
KGO1 130145Z 09008KT M01/M13 A303 RMK A01 T10101129  RH  040%=      5-min Rain = 0
KGO1 130146Z 09008KT M01/M13 A303 RMK A01 T10101129  RH  040%=      5-min Rain = 0
KGO1 130147Z 09009KT M01/M13 A3029 RMK A01 T10101129  RH  040%=      5-min Rain = 0
KGO1 130148Z 10008KT M01/M13 A3029 RMK A01 T10101128  RH  040%=      5-min Rain = 0
KGO1 130149Z 10008KT M01/M13 A3029 RMK A01 T10101128  RH  040%=      5-min Rain = 0
KGO1 130150Z 10008KT M01/M13 A3029 RMK A01 T10111128  RH  040%=      5-min Rain = 0
KGO1 130151Z 11008KT M01/M13 A3029 RMK A01 T10111129  RH  041%=      5-min Rain = 0
KGO1 130152Z 11009KT M01/M13 A3029 RMK A01 T10121129  RH  041%=      5-min Rain = 0
KGO1 130153Z 11008KT M01/M13 A3029 RMK A01 T10131129  RH  041%=      5-min Rain = 0
KGO1 130154Z 10008KT M01/M13 A3029 RMK A01 T10131129  RH  041%=      5-min Rain = 0
KGO1 130155Z 10007KT M01/M13 A303 RMK A01 T10131129  RH  041%=      5-min Rain = 0
KGO1 130156Z 10007KT M01/M13 A303 RMK A01 T10141129  RH  041%=      5-min Rain = 0
KGO1 130157Z 09007KT M01/M13 A303 RMK A01 T10141129  RH  041%=      5-min Rain = 0
KGO1 130158Z 09006KT M02/M13 A303 RMK A01 T10151129  RH  041%=      5-min Rain = 0
KGO1 130159Z 09007KT M02/M13 A3031 RMK A01 T10151129  RH  041%=      5-min Rain = 0
KGO1 130200Z 09008KT M02/M13 A3031 RMK A01 T10151130  RH  041%=      5-min Rain = 0
KGO1 130201Z 08009KT M02/M13 A3031 RMK A01 T10151130  RH  041%=      5-min Rain = 0
KGO1 130202Z 08008KT M02/M13 A3031 RMK A01 T10151130  RH  041%=      5-min Rain = 0
KGO1 130203Z 08008KT M02/M13 A3031 RMK A01 T10151130  RH  041%=      5-min Rain = 0
KGO1 130204Z 08007KT M02/M13 A3032 RMK A01 T10151130  RH  041%=      5-min Rain = 0
KGO1 130205Z 08007KT M02/M13 A3032 RMK A01 T10151131  RH  041%=      5-min Rain = 0
KGO1 130206Z 08006KT M02/M13 A3032 RMK A01 T10161131  RH  041%=      5-min Rain = 0
KGO1 130207Z 08008KT M02/M13 A3032 RMK A01 T10171131  RH  041%=      5-min Rain = 0
KGO1 130208Z 08008KT M02/M13 A3032 RMK A01 T10161131  RH  041%=      5-min Rain = 0
KGO1 130209Z 08008KT M02/M13 A3032 RMK A01 T10161131  RH  041%=      5-min Rain = 0
KGO1 130210Z 08008KT M02/M13 A3032 RMK A01 T10161131  RH  041%=      5-min Rain = 0
KGO1 130211Z 09007KT M02/M13 A3032 RMK A01 T10161131  RH  041%=      5-min Rain = 0
KGO1 130212Z 09007KT M02/M13 A3032 RMK A01 T10161132  RH  041%=      5-min Rain = 0
KGO1 130213Z 09007KT M02/M13 A3032 RMK A01 T10171132  RH  041%=      5-min Rain = 0
KGO1 130214Z 09007KT M02/M13 A3033 RMK A01 T10171132  RH  041%=      5-min Rain = 0
KGO1 130215Z 09006KT M02/M13 A3033 RMK A01 T10181132  RH  041%=      5-min Rain = 0
KGO1 130216Z 09005KT M02/M13 A3033 RMK A01 T10181133  RH  041%=      5-min Rain = 0
KGO1 130217Z 10005KT M02/M13 A3033 RMK A01 T10191133  RH  041%=      5-min Rain = 0
KGO1 130218Z 12004KT M02/M13 A3033 RMK A01 T10191133  RH  041%=      5-min Rain = 0
KGO1 130219Z 13004KT M02/M14 A3033 RMK A01 T10211135  RH  041%=      5-min Rain = 0
KGO1 130220Z 15004KT M02/M14 A3033 RMK A01 T10221135  RH  041%=      5-min Rain = 0
KGO1 130221Z 17004KT M02/M14 A3034 RMK A01 T10231136  RH  041%=      5-min Rain = 0
KGO1 130222Z 16004KT M02/M14 A3034 RMK A01 T10241137  RH  042%=      5-min Rain = 0
KGO1 130223Z 15005KT M03/M14 A3034 RMK A01 T10261137  RH  042%=      5-min Rain = 0
KGO1 130224Z 15004KT M03/M14 A3034 RMK A01 T10271137  RH  042%=      5-min Rain = 0
KGO1 130225Z 14004KT M03/M14 A3034 RMK A01 T10271136  RH  043%=      5-min Rain = 0
KGO1 130226Z 14004KT M03/M14 A3034 RMK A01 T10271136  RH  043%=      5-min Rain = 0
KGO1 130227Z 14005KT M03/M14 A3034 RMK A01 T10271136  RH  043%=      5-min Rain = 0
KGO1 130228Z 14004KT M03/M14 A3034 RMK A01 T10271136  RH  043%=      5-min Rain = 0
KGO1 130229Z 14004KT M03/M14 A3034 RMK A01 T10281137  RH  043%=      5-min Rain = 0
KGO1 130230Z 14004KT M03/M14 A3034 RMK A01 T10281138  RH  043%=      5-min Rain = 0
KGO1 130231Z 14004KT M03/M14 A3034 RMK A01 T10291138  RH  043%=      5-min Rain = 0
KGO1 130232Z 14004KT M03/M14 A3034 RMK A01 T10291138  RH  043%=      5-min Rain = 0
KGO1 130233Z 14004KT M03/M14 A3034 RMK A01 T10291138  RH  043%=      5-min Rain = 0
KGO1 130234Z 14004KT M03/M14 A3034 RMK A01 T10291137  RH  043%=      5-min Rain = 0
KGO1 130235Z 13004KT M03/M14 A3034 RMK A01 T10301137  RH  043%=      5-min Rain = 0
KGO1 130236Z 13005KT M03/M14 A3034 RMK A01 T10291137  RH  043%=      5-min Rain = 0
KGO1 130237Z 13005KT M03/M14 A3034 RMK A01 T10291137  RH  043%=      5-min Rain = 0
KGO1 130238Z 13004KT M03/M14 A3035 RMK A01 T10291137  RH  043%=      5-min Rain = 0
KGO1 130239Z 13004KT M03/M14 A3035 RMK A01 T10291137  RH  043%=      5-min Rain = 0
KGO1 130240Z 13005KT M03/M14 A3035 RMK A01 T10301137  RH  043%=      5-min Rain = 0
KGO1 130241Z 13005KT M03/M14 A3035 RMK A01 T10301137  RH  044%=      5-min Rain = 0
KGO1 130242Z 14004KT M03/M14 A3035 RMK A01 T10291136  RH  043%=      5-min Rain = 0
KGO1 130243Z 14004KT M03/M14 A3035 RMK A01 T10301137  RH  043%=      5-min Rain = 0
KGO1 130244Z 14004KT M03/M14 A3035 RMK A01 T10301138  RH  043%=      5-min Rain = 0
KGO1 130245Z 15003KT M03/M14 A3035 RMK A01 T10301139  RH  043%=      5-min Rain = 0
KGO1 130246Z 15004KT M03/M14 A3035 RMK A01 T10311141  RH  042%=      5-min Rain = 0
KGO1 130247Z 15004KT M03/M14 A3035 RMK A01 T10311142  RH  042%=      5-min Rain = 0
KGO1 130248Z 15004KT M03/M14 A3035 RMK A01 T10321142  RH  042%=      5-min Rain = 0
KGO1 130249Z 15004KT M03/M14 A3035 RMK A01 T10321142  RH  042%=      5-min Rain = 0
KGO1 130250Z 15004KT M03/M14 A3035 RMK A01 T10321142  RH  042%=      5-min Rain = 0
KGO1 130251Z 15003KT M03/M14 A3035 RMK A01 T10321141  RH  043%=      5-min Rain = 0
KGO1 130252Z 15003KT M03/M14 A3035 RMK A01 T10321141  RH  043%=      5-min Rain = 0
KGO1 130253Z 15003KT M03/M14 A3035 RMK A01 T10321141  RH  043%=      5-min Rain = 0
KGO1 130254Z 16004KT M03/M14 A3035 RMK A01 T10321141  RH  043%=      5-min Rain = 0
KGO1 130255Z 17003KT M03/M14 A3035 RMK A01 T10331144  RH  042%=      5-min Rain = 0
KGO1 130256Z 17003KT M03/M15 A3035 RMK A01 T10341145  RH  042%=      5-min Rain = 0
KGO1 130257Z 18003KT M04/M15 A3036 RMK A01 T10351145  RH  042%=      5-min Rain = 0
KGO1 130258Z 17003KT M04/M14 A3036 RMK A01 T10361144  RH  043%=      5-min Rain = 0
KGO1 130259Z 17003KT M04/M14 A3036 RMK A01 T10361142  RH  044%=      5-min Rain = 0
KGO1 130300Z 17003KT M04/M14 A3036 RMK A01 T10351140  RH  044%=      5-min Rain = 0
KGO1 130301Z 17003KT M04/M14 A3036 RMK A01 T10351140  RH  044%=      5-min Rain = 0
KGO1 130302Z 16003KT M04/M14 A3036 RMK A01 T10351140  RH  044%=      5-min Rain = 0
KGO1 130303Z 17003KT M03/M14 A3036 RMK A01 T10341140  RH  044%=      5-min Rain = 0
KGO1 130304Z 18003KT M03/M14 A3036 RMK A01 T10341141  RH  043%=      5-min Rain = 0
KGO1 130305Z 19003KT M03/M14 A3036 RMK A01 T10341141  RH  043%=      5-min Rain = 0
KGO1 130306Z 19002KT M03/M14 A3036 RMK A01 T10331140  RH  043%=      5-min Rain = 0
KGO1 130307Z 18002KT M03/M14 A3037 RMK A01 T10321140  RH  043%=      5-min Rain = 0
KGO1 130308Z 18002KT M03/M14 A3037 RMK A01 T10321140  RH  043%=      5-min Rain = 0
KGO1 130309Z 18002KT M03/M14 A3037 RMK A01 T10321140  RH  043%=      5-min Rain = 0
KGO1 130310Z 19002KT M03/M14 A3037 RMK A01 T10331142  RH  043%=      5-min Rain = 0
KGO1 130311Z 19002KT M03/M14 A3037 RMK A01 T10341144  RH  042%=      5-min Rain = 0
KGO1 130312Z 18001KT M04/M15 A3037 RMK A01 T10361145  RH  042%=      5-min Rain = 0
KGO1 130313Z 17001KT M04/M15 A3037 RMK A01 T10371145  RH  043%=      5-min Rain = 0
KGO1 130314Z 17001KT M04/M15 A3037 RMK A01 T10381145  RH  043%=      5-min Rain = 0
KGO1 130315Z 17000KT M04/M15 A3037 RMK A01 T10391145  RH  044%=      5-min Rain = 0
KGO1 130316Z 00000KT M04/M15 A3038 RMK A01 T10401145  RH  044%=      5-min Rain = 0
KGO1 130317Z 00000KT M04/M15 A3038 RMK A01 T10401145  RH  044%=      5-min Rain = 0
KGO1 130318Z 00000KT M04/M14 A3038 RMK A01 T10401143  RH  045%=      5-min Rain = 0
KGO1 130319Z 27000KT M04/M14 A3038 RMK A01 T10391141  RH  045%=      5-min Rain = 0
KGO1 130320Z 28001KT M04/M14 A3038 RMK A01 T10371140  RH  045%=      5-min Rain = 0
KGO1 130321Z 29001KT M04/M14 A3038 RMK A01 T10361139  RH  045%=      5-min Rain = 0
KGO1 130322Z 29000KT M04/M14 A3038 RMK A01 T10361140  RH  045%=      5-min Rain = 0
KGO1 130323Z 00000KT M04/M14 A3038 RMK A01 T10381140  RH  045%=      5-min Rain = 0
KGO1 130324Z 00000KT M04/M14 A3038 RMK A01 T10381139  RH  046%=      5-min Rain = 0
KGO1 130325Z 00000KT M04/M14 A3038 RMK A01 T10361136  RH  046%=      5-min Rain = 0
KGO1 130326Z 00000KT M04/M14 A3038 RMK A01 T10351136  RH  045%=      5-min Rain = 0
KGO1 130327Z 00000KT M03/M14 A3038 RMK A01 T10341136  RH  045%=      5-min Rain = 0
KGO1 130328Z 00000KT M03/M14 A3038 RMK A01 T10331136  RH  045%=      5-min Rain = 0
KGO1 130329Z 00000KT M03/M14 A3038 RMK A01 T10341139  RH  044%=      5-min Rain = 0
KGO1 130330Z 00000KT M04/M14 A3038 RMK A01 T10371142  RH  044%=      5-min Rain = 0
KGO1 130331Z 00000KT M04/M14 A3039 RMK A01 T10391141  RH  045%=      5-min Rain = 0
KGO1 130332Z 00000KT M04/M14 A3039 RMK A01 T10391140  RH  045%=      5-min Rain = 0
KGO1 130333Z 00000KT M04/M14 A3039 RMK A01 T10391139  RH  046%=      5-min Rain = 0
KGO1 130334Z 00000KT M04/M14 A3039 RMK A01 T10391138  RH  046%=      5-min Rain = 0
KGO1 130335Z 35001KT M04/M14 A3039 RMK A01 T10401139  RH  046%=      5-min Rain = 0
KGO1 130336Z 35001KT M04/M14 A3039 RMK A01 T10411139  RH  047%=      5-min Rain = 0
KGO1 130337Z 01001KT M04/M14 A3039 RMK A01 T10411138  RH  047%=      5-min Rain = 0
KGO1 130338Z 02002KT M04/M14 A3039 RMK A01 T10411138  RH  047%=      5-min Rain = 0
KGO1 130339Z 03002KT M04/M14 A3039 RMK A01 T10421139  RH  047%=      5-min Rain = 0
KGO1 130340Z 04002KT M04/M14 A3039 RMK A01 T10431140  RH  047%=      5-min Rain = 0
KGO1 130341Z 06002KT M05/M14 A3039 RMK A01 T10451141  RH  047%=      5-min Rain = 0
KGO1 130342Z 07003KT M05/M14 A3039 RMK A01 T10461140  RH  048%=      5-min Rain = 0
KGO1 130343Z 07003KT M05/M14 A3039 RMK A01 T10461138  RH  048%=      5-min Rain = 0
KGO1 130344Z 06003KT M04/M14 A3039 RMK A01 T10431135  RH  048%=      5-min Rain = 0
KGO1 130345Z 03004KT M04/M14 A3039 RMK A01 T10391135  RH  047%=      5-min Rain = 0
KGO1 130346Z 03004KT M04/M14 A3039 RMK A01 T10391138  RH  046%=      5-min Rain = 0
KGO1 130347Z 04004KT M05/M14 A3039 RMK A01 T10451143  RH  046%=      5-min Rain = 0
KGO1 130348Z 06003KT M05/M14 A3039 RMK A01 T10491143  RH  048%=      5-min Rain = 0
KGO1 130349Z 05003KT M05/M14 A3039 RMK A01 T10501141  RH  049%=      5-min Rain = 0
KGO1 130350Z 03004KT M05/M14 A3039 RMK A01 T10491139  RH  049%=      5-min Rain = 0
KGO1 130351Z 03003KT M05/M14 A3039 RMK A01 T10491138  RH  050%=      5-min Rain = 0
KGO1 130352Z 07003KT M05/M14 A3039 RMK A01 T10491138  RH  050%=      5-min Rain = 0
KGO1 130353Z 10003KT M05/M14 A3039 RMK A01 T10491138  RH  049%=      5-min Rain = 0
KGO1 130354Z 11003KT M05/M14 A3039 RMK A01 T10491138  RH  049%=      5-min Rain = 0
KGO1 130355Z 10002KT M05/M14 A3039 RMK A01 T10481138  RH  049%=      5-min Rain = 0
KGO1 130356Z 09002KT M05/M14 A3039 RMK A01 T10491138  RH  049%=      5-min Rain = 0
KGO1 130357Z 08001KT M05/M14 A3039 RMK A01 T10491139  RH  049%=      5-min Rain = 0
KGO1 130358Z 09002KT M05/M14 A3039 RMK A01 T10501139  RH  049%=      5-min Rain = 0
KGO1 130359Z 11002KT M05/M14 A3039 RMK A01 T10501139  RH  050%=      5-min Rain = 0
KGO1 130400Z 11003KT M05/M14 A3039 RMK A01 T10501138  RH  050%=      5-min Rain = 0
KGO1 130401Z 11002KT M05/M14 A3039 RMK A01 T10501139  RH  050%=      5-min Rain = 0
KGO1 130402Z 12002KT M05/M14 A3039 RMK A01 T10491139  RH  050%=      5-min Rain = 0
KGO1 130403Z 13002KT M05/M14 A3039 RMK A01 T10491138  RH  050%=      5-min Rain = 0
KGO1 130404Z 13002KT M05/M14 A3039 RMK A01 T10481138  RH  049%=      5-min Rain = 0
KGO1 130405Z 13001KT M05/M14 A3039 RMK A01 T10471138  RH  049%=      5-min Rain = 0
KGO1 130406Z 18000KT M05/M14 A3039 RMK A01 T10461141  RH  048%=      5-min Rain = 0
KGO1 130407Z 21001KT M05/M15 A3039 RMK A01 T10501153  RH  045%=      5-min Rain = 0
KGO1 130408Z 20000KT M06/M16 A304 RMK A01 T10551156  RH  045%=      5-min Rain = 0
KGO1 130409Z 00000KT M06/M15 A304 RMK A01 T10561153  RH  046%=      5-min Rain = 0
KGO1 130410Z 17000KT M06/M15 A304 RMK A01 T10561150  RH  047%=      5-min Rain = 0
KGO1 130411Z 16001KT M05/M15 A304 RMK A01 T10541145  RH  048%=      5-min Rain = 0
KGO1 130412Z 16001KT M05/M15 A304 RMK A01 T10531146  RH  048%=      5-min Rain = 0
KGO1 130413Z 15002KT M05/M15 A304 RMK A01 T10531146  RH  048%=      5-min Rain = 0
KGO1 130414Z 15002KT M05/M15 A3039 RMK A01 T10531145  RH  049%=      5-min Rain = 0
KGO1 130415Z 15003KT M05/M14 A3039 RMK A01 T10511143  RH  048%=      5-min Rain = 0
KGO1 130416Z 16004KT M05/M14 A3039 RMK A01 T10491142  RH  048%=      5-min Rain = 0
KGO1 130417Z 17004KT M05/M14 A3039 RMK A01 T10471142  RH  047%=      5-min Rain = 0
KGO1 130418Z 17005KT M05/M14 A3039 RMK A01 T10461144  RH  047%=      5-min Rain = 0
KGO1 130419Z 17006KT M05/M15 A3039 RMK A01 T10461145  RH  046%=      5-min Rain = 0
KGO1 130420Z 17006KT M05/M15 A3039 RMK A01 T10471148  RH  045%=      5-min Rain = 0
KGO1 130421Z 18006KT M05/M15 A3039 RMK A01 T10491149  RH  045%=      5-min Rain = 0
KGO1 130422Z 18006KT M05/M15 A3039 RMK A01 T10501149  RH  046%=      5-min Rain = 0
KGO1 130423Z 18006KT M05/M15 A3039 RMK A01 T10511147  RH  047%=      5-min Rain = 0
KGO1 130424Z 17006KT M05/M15 A3039 RMK A01 T10511146  RH  047%=      5-min Rain = 0
KGO1 130425Z 17006KT M05/M15 A3039 RMK A01 T10501146  RH  047%=      5-min Rain = 0
KGO1 130426Z 17006KT M05/M15 A3039 RMK A01 T10491146  RH  047%=      5-min Rain = 0
KGO1 130427Z 17006KT M05/M15 A3039 RMK A01 T10491147  RH  046%=      5-min Rain = 0
KGO1 130428Z 17005KT M05/M15 A3039 RMK A01 T10481147  RH  046%=      5-min Rain = 0
KGO1 130429Z 18004KT M05/M15 A3039 RMK A01 T10491148  RH  046%=      5-min Rain = 0
KGO1 130430Z 18003KT M05/M15 A3039 RMK A01 T10501150  RH  046%=      5-min Rain = 0
KGO1 130431Z 17003KT M05/M15 A3039 RMK A01 T10511150  RH  046%=      5-min Rain = 0
KGO1 130432Z 16002KT M05/M15 A304 RMK A01 T10521150  RH  046%=      5-min Rain = 0
KGO1 130433Z 15001KT M05/M15 A304 RMK A01 T10531150  RH  046%=      5-min Rain = 0
KGO1 130434Z 15001KT M05/M15 A304 RMK A01 T10541149  RH  047%=      5-min Rain = 0
KGO1 130435Z 17003KT M05/M15 A3039 RMK A01 T10541148  RH  047%=      5-min Rain = 0
KGO1 130436Z 17003KT M05/M15 A3039 RMK A01 T10541147  RH  048%=      5-min Rain = 0
KGO1 130437Z 18004KT M05/M15 A3039 RMK A01 T10541147  RH  048%=      5-min Rain = 0
KGO1 130438Z 18004KT M05/M15 A3039 RMK A01 T10531147  RH  048%=      5-min Rain = 0
KGO1 130439Z 18004KT M05/M15 A3039 RMK A01 T10531147  RH  048%=      5-min Rain = 0
KGO1 130440Z 18004KT M05/M15 A3039 RMK A01 T10521147  RH  047%=      5-min Rain = 0
KGO1 130441Z 19003KT M05/M15 A3039 RMK A01 T10531148  RH  047%=      5-min Rain = 0
KGO1 130442Z 19003KT M05/M15 A3039 RMK A01 T10541148  RH  047%=      5-min Rain = 0
KGO1 130443Z 20003KT M05/M15 A3039 RMK A01 T10541148  RH  047%=      5-min Rain = 0
KGO1 130444Z 20004KT M05/M15 A3039 RMK A01 T10541149  RH  047%=      5-min Rain = 0
KGO1 130445Z 20003KT M06/M15 A304 RMK A01 T10551150  RH  047%=      5-min Rain = 0
KGO1 130446Z 21003KT M06/M16 A304 RMK A01 T10591157  RH  046%=      5-min Rain = 0
KGO1 130447Z 20002KT M06/M16 A304 RMK A01 T10621158  RH  047%=      5-min Rain = 0
KGO1 130448Z 20002KT M06/M16 A304 RMK A01 T10631157  RH  048%=      5-min Rain = 0
KGO1 130449Z 20002KT M06/M16 A304 RMK A01 T10641157  RH  048%=      5-min Rain = 0
KGO1 130450Z 21002KT M06/M16 A304 RMK A01 T10641155  RH  049%=      5-min Rain = 0
KGO1 130451Z 22002KT M06/M15 A304 RMK A01 T10641154  RH  049%=      5-min Rain = 0
KGO1 130452Z 22002KT M06/M15 A304 RMK A01 T10631153  RH  049%=      5-min Rain = 0
KGO1 130453Z 22002KT M06/M16 A304 RMK A01 T10641155  RH  049%=      5-min Rain = 0
KGO1 130454Z 22002KT M07/M16 A304 RMK A01 T10651155  RH  049%=      5-min Rain = 0
KGO1 130455Z 22002KT M07/M16 A304 RMK A01 T10661155  RH  049%=      5-min Rain = 0
KGO1 130456Z 22003KT M07/M15 A304 RMK A01 T10661154  RH  050%=      5-min Rain = 0
KGO1 130457Z 22003KT M07/M15 A304 RMK A01 T10661154  RH  050%=      5-min Rain = 0
KGO1 130458Z 21003KT M07/M15 A304 RMK A01 T10671153  RH  050%=      5-min Rain = 0
KGO1 130459Z 21004KT M07/M15 A304 RMK A01 T10661152  RH  051%=      5-min Rain = 0
KGO1 130500Z 21004KT M07/M15 A304 RMK A01 T10661152  RH  050%=      5-min Rain = 0
KGO1 130501Z 21003KT M07/M15 A304 RMK A01 T10651151  RH  050%=      5-min Rain = 0
KGO1 130502Z 21003KT M07/M15 A304 RMK A01 T10651152  RH  050%=      5-min Rain = 0
KGO1 130503Z 20003KT M06/M15 A304 RMK A01 T10641151  RH  050%=      5-min Rain = 0
KGO1 130504Z 20003KT M06/M15 A304 RMK A01 T10641151  RH  050%=      5-min Rain = 0
KGO1 130505Z 20003KT M06/M15 A304 RMK A01 T10631150  RH  050%=      5-min Rain = 0
KGO1 130506Z 21003KT M06/M15 A304 RMK A01 T10611148  RH  050%=      5-min Rain = 0
KGO1 130507Z 23003KT M06/M15 A304 RMK A01 T10611148  RH  050%=      5-min Rain = 0
KGO1 130508Z 23003KT M06/M15 A304 RMK A01 T10621149  RH  050%=      5-min Rain = 0
KGO1 130509Z 23003KT M06/M15 A304 RMK A01 T10641150  RH  051%=      5-min Rain = 0
KGO1 130510Z 23003KT M07/M15 A304 RMK A01 T10651149  RH  051%=      5-min Rain = 0
KGO1 130511Z 23003KT M07/M15 A304 RMK A01 T10651149  RH  052%=      5-min Rain = 0
KGO1 130512Z 23003KT M07/M15 A3041 RMK A01 T10651148  RH  052%=      5-min Rain = 0
KGO1 130513Z 23003KT M07/M15 A3041 RMK A01 T10661148  RH  052%=      5-min Rain = 0
KGO1 130514Z 24003KT M07/M15 A3041 RMK A01 T10661147  RH  052%=      5-min Rain = 0
KGO1 130515Z 24003KT M07/M15 A3041 RMK A01 T10671148  RH  053%=      5-min Rain = 0
KGO1 130516Z 23003KT M07/M15 A3041 RMK A01 T10681149  RH  053%=      5-min Rain = 0
KGO1 130517Z 24003KT M07/M15 A3041 RMK A01 T10701150  RH  053%=      5-min Rain = 0
KGO1 130518Z 24003KT M07/M15 A3041 RMK A01 T10711151  RH  053%=      5-min Rain = 0
KGO1 130519Z 24003KT M07/M15 A3041 RMK A01 T10721151  RH  053%=      5-min Rain = 0
KGO1 130520Z 23003KT M07/M15 A3041 RMK A01 T10721151  RH  054%=      5-min Rain = 0
KGO1 130521Z 23003KT M07/M15 A3041 RMK A01 T10731151  RH  054%=      5-min Rain = 0
KGO1 130522Z 23003KT M07/M15 A3041 RMK A01 T10731151  RH  054%=      5-min Rain = 0
KGO1 130523Z 23003KT M07/M15 A3041 RMK A01 T10731151  RH  054%=      5-min Rain = 0
KGO1 130524Z 23002KT M07/M15 A3041 RMK A01 T10731151  RH  054%=      5-min Rain = 0
KGO1 130525Z 24002KT M07/M15 A3041 RMK A01 T10731151  RH  054%=      5-min Rain = 0
KGO1 130526Z 24003KT M07/M15 A3042 RMK A01 T10731150  RH  054%=      5-min Rain = 0
KGO1 130527Z 24003KT M07/M15 A3042 RMK A01 T10731150  RH  054%=      5-min Rain = 0
KGO1 130528Z 25003KT M07/M15 A3042 RMK A01 T10721150  RH  054%=      5-min Rain = 0
KGO1 130529Z 26003KT M07/M15 A3042 RMK A01 T10721150  RH  054%=      5-min Rain = 0
KGO1 130530Z 27002KT M07/M15 A3042 RMK A01 T10731150  RH  054%=      5-min Rain = 0
KGO1 130531Z 26002KT M07/M15 A3042 RMK A01 T10741151  RH  054%=      5-min Rain = 0
KGO1 130532Z 24002KT M08/M15 A3042 RMK A01 T10751150  RH  055%=      5-min Rain = 0
KGO1 130533Z 24002KT M08/M15 A3042 RMK A01 T10751149  RH  055%=      5-min Rain = 0
KGO1 130534Z 24001KT M08/M15 A3042 RMK A01 T10751149  RH  056%=      5-min Rain = 0
KGO1 130535Z 25001KT M08/M15 A3042 RMK A01 T10751148  RH  056%=      5-min Rain = 0
KGO1 130536Z 25000KT M08/M15 A3042 RMK A01 T10751147  RH  056%=      5-min Rain = 0
KGO1 130537Z 25000KT M07/M14 A3042 RMK A01 T10741144  RH  057%=      5-min Rain = 0
KGO1 130538Z 25000KT M07/M14 A3042 RMK A01 T10721141  RH  058%=      5-min Rain = 0
KGO1 130539Z 00000KT M07/M14 A3042 RMK A01 T10701139  RH  058%=      5-min Rain = 0
KGO1 130540Z 29001KT M07/M14 A3042 RMK A01 T10671138  RH  057%=      5-min Rain = 0
KGO1 130541Z 30001KT M07/M14 A3043 RMK A01 T10651138  RH  056%=      5-min Rain = 0
KGO1 130542Z 30001KT M06/M14 A3043 RMK A01 T10631138  RH  055%=      5-min Rain = 0
KGO1 130543Z 31001KT M06/M14 A3043 RMK A01 T10611138  RH  055%=      5-min Rain = 0
KGO1 130544Z 34001KT M06/M14 A3043 RMK A01 T10601138  RH  054%=      5-min Rain = 0
KGO1 130545Z 35003KT M06/M14 A3043 RMK A01 T10581137  RH  054%=      5-min Rain = 0
KGO1 130546Z 02003KT M06/M14 A3043 RMK A01 T10581139  RH  053%=      5-min Rain = 0
KGO1 130547Z 03002KT M06/M15 A3043 RMK A01 T10641145  RH  052%=      5-min Rain = 0
KGO1 130548Z 02003KT M07/M15 A3043 RMK A01 T10681146  RH  054%=      5-min Rain = 0
KGO1 130549Z 02004KT M07/M15 A3043 RMK A01 T10701145  RH  055%=      5-min Rain = 0
KGO1 130550Z 03004KT M07/M14 A3043 RMK A01 T10711144  RH  056%=      5-min Rain = 0
KGO1 130551Z 02005KT M07/M14 A3043 RMK A01 T10721142  RH  057%=      5-min Rain = 0
KGO1 130552Z 02005KT M07/M14 A3043 RMK A01 T10721142  RH  058%=      5-min Rain = 0
KGO1 130553Z 02005KT M07/M14 A3043 RMK A01 T10731142  RH  058%=      5-min Rain = 0
KGO1 130554Z 02004KT M07/M14 A3043 RMK A01 T10741143  RH  058%=      5-min Rain = 0
KGO1 130555Z 03004KT M08/M14 A3043 RMK A01 T10761144  RH  058%=      5-min Rain = 0
KGO1 130556Z 02005KT M08/M14 A3043 RMK A01 T10771143  RH  059%=      5-min Rain = 0
KGO1 130557Z 01005KT M08/M14 A3043 RMK A01 T10761142  RH  059%=      5-min Rain = 0
KGO1 130558Z 01005KT M08/M14 A3043 RMK A01 T10771142  RH  059%=      5-min Rain = 0
KGO1 130559Z 01005KT M08/M14 A3043 RMK A01 T10781144  RH  059%=      5-min Rain = 0

Page generated in 0.0748 seconds.